<?xml version="1.0" encoding="UTF-8" standalone="no" ?>
<gpx xmlns="http://www.topografix.com/GPX/1/1" xmlns:xsi="http://www.w3.org/2001/XMLSchema-instance" xsi:schemaLocation="http://www.topografix.com/GPX/1/1 http://www.topografix.com/GPX/1/1/gpx.xsd" version="1.1" creator="VisuGPX - https://www.visugpx.com">
  <metadata>
    <name>Entre Chateauneuf de Gadagne et Caumont</name>
    <desc><![CDATA[Balade entre Chateauneuf de Gadagne et Caumont]]></desc>
  </metadata>
  <trk>
    <name><![CDATA[2020-03-09 13-57-46]]></name>
    <trkseg>
      <trkpt lat="43.93135" lon="4.92396">
        <ele>103</ele>
        <time>2020-03-09T08:17:25Z</time>
      </trkpt>
      <trkpt lat="43.93135" lon="4.92395">
        <ele>103</ele>
        <time>2020-03-09T08:17:26Z</time>
      </trkpt>
      <trkpt lat="43.93134" lon="4.92392">
        <ele>102.04</ele>
        <time>2020-03-09T08:17:51Z</time>
      </trkpt>
      <trkpt lat="43.93132" lon="4.92393">
        <ele>103.96</ele>
        <time>2020-03-09T08:18:16Z</time>
      </trkpt>
      <trkpt lat="43.93126" lon="4.92393">
        <ele>103.96</ele>
        <time>2020-03-09T08:18:41Z</time>
      </trkpt>
      <trkpt lat="43.93124" lon="4.92393">
        <ele>103.96</ele>
        <time>2020-03-09T08:19:07Z</time>
      </trkpt>
      <trkpt lat="43.93124" lon="4.92392">
        <ele>103.48</ele>
        <time>2020-03-09T08:19:33Z</time>
      </trkpt>
      <trkpt lat="43.93116" lon="4.9239">
        <ele>103.96</ele>
        <time>2020-03-09T08:20:00Z</time>
      </trkpt>
      <trkpt lat="43.93107" lon="4.92384">
        <ele>103.96</ele>
        <time>2020-03-09T08:20:10Z</time>
      </trkpt>
      <trkpt lat="43.9309" lon="4.92378">
        <ele>103</ele>
        <time>2020-03-09T08:20:27Z</time>
      </trkpt>
      <trkpt lat="43.93069" lon="4.92374">
        <ele>103</ele>
        <time>2020-03-09T08:20:44Z</time>
      </trkpt>
      <trkpt lat="43.93047" lon="4.92367">
        <ele>103</ele>
        <time>2020-03-09T08:21:03Z</time>
      </trkpt>
      <trkpt lat="43.93032" lon="4.92359">
        <ele>103</ele>
        <time>2020-03-09T08:21:20Z</time>
      </trkpt>
      <trkpt lat="43.93031" lon="4.92358">
        <ele>103</ele>
        <time>2020-03-09T08:21:21Z</time>
      </trkpt>
      <trkpt lat="43.93024" lon="4.92353">
        <ele>102.52</ele>
        <time>2020-03-09T08:21:28Z</time>
      </trkpt>
      <trkpt lat="43.93009" lon="4.92344">
        <ele>102.52</ele>
        <time>2020-03-09T08:21:43Z</time>
      </trkpt>
      <trkpt lat="43.92991" lon="4.92336">
        <ele>102.04</ele>
        <time>2020-03-09T08:22:00Z</time>
      </trkpt>
      <trkpt lat="43.92976" lon="4.92327">
        <ele>102.52</ele>
        <time>2020-03-09T08:22:13Z</time>
      </trkpt>
      <trkpt lat="43.92951" lon="4.92316">
        <ele>103</ele>
        <time>2020-03-09T08:22:33Z</time>
      </trkpt>
      <trkpt lat="43.92932" lon="4.92308">
        <ele>102.52</ele>
        <time>2020-03-09T08:22:50Z</time>
      </trkpt>
      <trkpt lat="43.92914" lon="4.92303">
        <ele>102.52</ele>
        <time>2020-03-09T08:23:04Z</time>
      </trkpt>
      <trkpt lat="43.92908" lon="4.923">
        <ele>103</ele>
        <time>2020-03-09T08:23:10Z</time>
      </trkpt>
      <trkpt lat="43.92892" lon="4.92298">
        <ele>102.52</ele>
        <time>2020-03-09T08:23:25Z</time>
      </trkpt>
      <trkpt lat="43.92878" lon="4.92298">
        <ele>102.52</ele>
        <time>2020-03-09T08:23:39Z</time>
      </trkpt>
      <trkpt lat="43.92877" lon="4.92298">
        <ele>102.52</ele>
        <time>2020-03-09T08:23:40Z</time>
      </trkpt>
      <trkpt lat="43.92865" lon="4.92296">
        <ele>103</ele>
        <time>2020-03-09T08:23:53Z</time>
      </trkpt>
      <trkpt lat="43.92846" lon="4.92297">
        <ele>103</ele>
        <time>2020-03-09T08:24:09Z</time>
      </trkpt>
      <trkpt lat="43.92831" lon="4.92299">
        <ele>103</ele>
        <time>2020-03-09T08:24:22Z</time>
      </trkpt>
      <trkpt lat="43.92814" lon="4.92309">
        <ele>103</ele>
        <time>2020-03-09T08:24:39Z</time>
      </trkpt>
      <trkpt lat="43.92799" lon="4.92312">
        <ele>103</ele>
        <time>2020-03-09T08:24:55Z</time>
      </trkpt>
      <trkpt lat="43.92779" lon="4.9231">
        <ele>102.52</ele>
        <time>2020-03-09T08:25:15Z</time>
      </trkpt>
      <trkpt lat="43.9276" lon="4.92309">
        <ele>103</ele>
        <time>2020-03-09T08:25:32Z</time>
      </trkpt>
      <trkpt lat="43.92744" lon="4.92302">
        <ele>103</ele>
        <time>2020-03-09T08:25:47Z</time>
      </trkpt>
      <trkpt lat="43.92732" lon="4.92297">
        <ele>103</ele>
        <time>2020-03-09T08:25:57Z</time>
      </trkpt>
      <trkpt lat="43.92714" lon="4.92282">
        <ele>102.52</ele>
        <time>2020-03-09T08:26:16Z</time>
      </trkpt>
      <trkpt lat="43.92702" lon="4.92258">
        <ele>103.96</ele>
        <time>2020-03-09T08:26:35Z</time>
      </trkpt>
      <trkpt lat="43.92693" lon="4.92245">
        <ele>103</ele>
        <time>2020-03-09T08:26:48Z</time>
      </trkpt>
      <trkpt lat="43.92697" lon="4.92247">
        <ele>102.52</ele>
        <time>2020-03-09T08:27:05Z</time>
      </trkpt>
      <trkpt lat="43.92698" lon="4.9227">
        <ele>103</ele>
        <time>2020-03-09T08:27:26Z</time>
      </trkpt>
      <trkpt lat="43.92675" lon="4.92261">
        <ele>103</ele>
        <time>2020-03-09T08:27:46Z</time>
      </trkpt>
      <trkpt lat="43.92654" lon="4.92253">
        <ele>103.96</ele>
        <time>2020-03-09T08:28:06Z</time>
      </trkpt>
      <trkpt lat="43.92635" lon="4.92244">
        <ele>103</ele>
        <time>2020-03-09T08:28:24Z</time>
      </trkpt>
      <trkpt lat="43.92618" lon="4.92238">
        <ele>102.52</ele>
        <time>2020-03-09T08:28:40Z</time>
      </trkpt>
      <trkpt lat="43.9261" lon="4.92236">
        <ele>102.52</ele>
        <time>2020-03-09T08:28:48Z</time>
      </trkpt>
      <trkpt lat="43.92607" lon="4.92233">
        <ele>102.52</ele>
        <time>2020-03-09T08:28:51Z</time>
      </trkpt>
      <trkpt lat="43.92599" lon="4.92232">
        <ele>102.04</ele>
        <time>2020-03-09T08:28:59Z</time>
      </trkpt>
      <trkpt lat="43.92592" lon="4.9223">
        <ele>102.52</ele>
        <time>2020-03-09T08:29:04Z</time>
      </trkpt>
      <trkpt lat="43.9258" lon="4.92223">
        <ele>102.04</ele>
        <time>2020-03-09T08:29:16Z</time>
      </trkpt>
      <trkpt lat="43.92576" lon="4.92219">
        <ele>102.04</ele>
        <time>2020-03-09T08:29:20Z</time>
      </trkpt>
      <trkpt lat="43.92568" lon="4.92215">
        <ele>102.04</ele>
        <time>2020-03-09T08:29:29Z</time>
      </trkpt>
      <trkpt lat="43.92548" lon="4.92201">
        <ele>102.52</ele>
        <time>2020-03-09T08:29:48Z</time>
      </trkpt>
      <trkpt lat="43.92531" lon="4.92193">
        <ele>102.52</ele>
        <time>2020-03-09T08:30:05Z</time>
      </trkpt>
      <trkpt lat="43.92516" lon="4.92186">
        <ele>102.52</ele>
        <time>2020-03-09T08:30:21Z</time>
      </trkpt>
      <trkpt lat="43.92498" lon="4.92179">
        <ele>102.04</ele>
        <time>2020-03-09T08:30:37Z</time>
      </trkpt>
      <trkpt lat="43.9249" lon="4.9217">
        <ele>102.52</ele>
        <time>2020-03-09T08:30:48Z</time>
      </trkpt>
      <trkpt lat="43.92483" lon="4.92152">
        <ele>101.56</ele>
        <time>2020-03-09T08:31:04Z</time>
      </trkpt>
      <trkpt lat="43.92475" lon="4.9215">
        <ele>101.56</ele>
        <time>2020-03-09T08:31:12Z</time>
      </trkpt>
      <trkpt lat="43.92454" lon="4.9215">
        <ele>101.56</ele>
        <time>2020-03-09T08:31:31Z</time>
      </trkpt>
      <trkpt lat="43.92435" lon="4.92149">
        <ele>102.52</ele>
        <time>2020-03-09T08:31:48Z</time>
      </trkpt>
      <trkpt lat="43.92419" lon="4.92141">
        <ele>102.04</ele>
        <time>2020-03-09T08:32:04Z</time>
      </trkpt>
      <trkpt lat="43.92402" lon="4.92135">
        <ele>101.56</ele>
        <time>2020-03-09T08:32:19Z</time>
      </trkpt>
      <trkpt lat="43.92392" lon="4.92131">
        <ele>102.04</ele>
        <time>2020-03-09T08:32:30Z</time>
      </trkpt>
      <trkpt lat="43.92381" lon="4.92126">
        <ele>101.56</ele>
        <time>2020-03-09T08:32:41Z</time>
      </trkpt>
      <trkpt lat="43.92374" lon="4.92121">
        <ele>101.56</ele>
        <time>2020-03-09T08:32:48Z</time>
      </trkpt>
      <trkpt lat="43.9237" lon="4.92121">
        <ele>101.56</ele>
        <time>2020-03-09T08:32:51Z</time>
      </trkpt>
      <trkpt lat="43.92366" lon="4.92118">
        <ele>99.63</ele>
        <time>2020-03-09T08:32:55Z</time>
      </trkpt>
      <trkpt lat="43.92353" lon="4.921">
        <ele>101.08</ele>
        <time>2020-03-09T08:33:13Z</time>
      </trkpt>
      <trkpt lat="43.92346" lon="4.92089">
        <ele>101.08</ele>
        <time>2020-03-09T08:33:25Z</time>
      </trkpt>
      <trkpt lat="43.92339" lon="4.92082">
        <ele>101.08</ele>
        <time>2020-03-09T08:33:33Z</time>
      </trkpt>
      <trkpt lat="43.92326" lon="4.92072">
        <ele>100.11</ele>
        <time>2020-03-09T08:33:48Z</time>
      </trkpt>
      <trkpt lat="43.92312" lon="4.92057">
        <ele>100.11</ele>
        <time>2020-03-09T08:34:04Z</time>
      </trkpt>
      <trkpt lat="43.92302" lon="4.92049">
        <ele>100.6</ele>
        <time>2020-03-09T08:34:15Z</time>
      </trkpt>
      <trkpt lat="43.92294" lon="4.92039">
        <ele>99.15</ele>
        <time>2020-03-09T08:34:29Z</time>
      </trkpt>
      <trkpt lat="43.92275" lon="4.92021">
        <ele>97.71</ele>
        <time>2020-03-09T08:34:53Z</time>
      </trkpt>
      <trkpt lat="43.92265" lon="4.92018">
        <ele>97.23</ele>
        <time>2020-03-09T08:35:03Z</time>
      </trkpt>
      <trkpt lat="43.92245" lon="4.92003">
        <ele>96.27</ele>
        <time>2020-03-09T08:35:23Z</time>
      </trkpt>
      <trkpt lat="43.92239" lon="4.92">
        <ele>96.75</ele>
        <time>2020-03-09T08:35:36Z</time>
      </trkpt>
      <trkpt lat="43.92231" lon="4.91998">
        <ele>96.75</ele>
        <time>2020-03-09T08:35:51Z</time>
      </trkpt>
      <trkpt lat="43.92231" lon="4.91997">
        <ele>95.31</ele>
        <time>2020-03-09T08:36:21Z</time>
      </trkpt>
      <trkpt lat="43.92225" lon="4.91996">
        <ele>96.75</ele>
        <time>2020-03-09T08:36:41Z</time>
      </trkpt>
      <trkpt lat="43.9222" lon="4.91996">
        <ele>96.27</ele>
        <time>2020-03-09T08:36:46Z</time>
      </trkpt>
      <trkpt lat="43.9221" lon="4.91995">
        <ele>95.79</ele>
        <time>2020-03-09T08:36:57Z</time>
      </trkpt>
      <trkpt lat="43.92192" lon="4.91989">
        <ele>95.79</ele>
        <time>2020-03-09T08:37:16Z</time>
      </trkpt>
      <trkpt lat="43.92169" lon="4.91984">
        <ele>96.75</ele>
        <time>2020-03-09T08:37:37Z</time>
      </trkpt>
      <trkpt lat="43.92149" lon="4.91982">
        <ele>96.75</ele>
        <time>2020-03-09T08:37:55Z</time>
      </trkpt>
      <trkpt lat="43.92132" lon="4.91979">
        <ele>95.31</ele>
        <time>2020-03-09T08:38:13Z</time>
      </trkpt>
      <trkpt lat="43.92117" lon="4.91975">
        <ele>95.31</ele>
        <time>2020-03-09T08:38:29Z</time>
      </trkpt>
      <trkpt lat="43.92097" lon="4.91957">
        <ele>95.31</ele>
        <time>2020-03-09T08:38:48Z</time>
      </trkpt>
      <trkpt lat="43.92081" lon="4.91952">
        <ele>95.79</ele>
        <time>2020-03-09T08:39:01Z</time>
      </trkpt>
      <trkpt lat="43.92066" lon="4.91941">
        <ele>94.83</ele>
        <time>2020-03-09T08:39:19Z</time>
      </trkpt>
      <trkpt lat="43.92052" lon="4.91931">
        <ele>92.9</ele>
        <time>2020-03-09T08:39:38Z</time>
      </trkpt>
      <trkpt lat="43.92044" lon="4.91927">
        <ele>90.98</ele>
        <time>2020-03-09T08:39:50Z</time>
      </trkpt>
      <trkpt lat="43.92028" lon="4.91924">
        <ele>88.58</ele>
        <time>2020-03-09T08:40:08Z</time>
      </trkpt>
      <trkpt lat="43.92009" lon="4.91931">
        <ele>87.62</ele>
        <time>2020-03-09T08:40:29Z</time>
      </trkpt>
      <trkpt lat="43.91991" lon="4.9192">
        <ele>86.66</ele>
        <time>2020-03-09T08:40:45Z</time>
      </trkpt>
      <trkpt lat="43.91982" lon="4.91918">
        <ele>87.14</ele>
        <time>2020-03-09T08:41:04Z</time>
      </trkpt>
      <trkpt lat="43.91972" lon="4.91922">
        <ele>89.06</ele>
        <time>2020-03-09T08:41:14Z</time>
      </trkpt>
      <trkpt lat="43.91957" lon="4.91923">
        <ele>91.46</ele>
        <time>2020-03-09T08:41:30Z</time>
      </trkpt>
      <trkpt lat="43.91947" lon="4.9192">
        <ele>93.39</ele>
        <time>2020-03-09T08:41:41Z</time>
      </trkpt>
      <trkpt lat="43.91938" lon="4.91909">
        <ele>95.79</ele>
        <time>2020-03-09T08:41:56Z</time>
      </trkpt>
      <trkpt lat="43.91935" lon="4.91883">
        <ele>95.31</ele>
        <time>2020-03-09T08:42:17Z</time>
      </trkpt>
      <trkpt lat="43.91933" lon="4.91879">
        <ele>94.83</ele>
        <time>2020-03-09T08:42:29Z</time>
      </trkpt>
      <trkpt lat="43.91934" lon="4.91873">
        <ele>94.83</ele>
        <time>2020-03-09T08:42:53Z</time>
      </trkpt>
      <trkpt lat="43.91931" lon="4.91866">
        <ele>94.83</ele>
        <time>2020-03-09T08:43:18Z</time>
      </trkpt>
      <trkpt lat="43.91917" lon="4.91869">
        <ele>94.83</ele>
        <time>2020-03-09T08:43:34Z</time>
      </trkpt>
      <trkpt lat="43.91905" lon="4.91871">
        <ele>95.31</ele>
        <time>2020-03-09T08:43:52Z</time>
      </trkpt>
      <trkpt lat="43.91894" lon="4.91863">
        <ele>94.83</ele>
        <time>2020-03-09T08:44:12Z</time>
      </trkpt>
      <trkpt lat="43.9188" lon="4.91872">
        <ele>96.27</ele>
        <time>2020-03-09T08:44:29Z</time>
      </trkpt>
      <trkpt lat="43.91874" lon="4.91869">
        <ele>96.75</ele>
        <time>2020-03-09T08:44:35Z</time>
      </trkpt>
      <trkpt lat="43.91858" lon="4.91857">
        <ele>95.79</ele>
        <time>2020-03-09T08:44:54Z</time>
      </trkpt>
      <trkpt lat="43.91845" lon="4.91842">
        <ele>97.71</ele>
        <time>2020-03-09T08:45:14Z</time>
      </trkpt>
      <trkpt lat="43.91823" lon="4.91842">
        <ele>98.19</ele>
        <time>2020-03-09T08:45:37Z</time>
      </trkpt>
      <trkpt lat="43.91817" lon="4.91843">
        <ele>98.19</ele>
        <time>2020-03-09T08:45:58Z</time>
      </trkpt>
      <trkpt lat="43.91813" lon="4.91846">
        <ele>99.63</ele>
        <time>2020-03-09T08:46:23Z</time>
      </trkpt>
      <trkpt lat="43.91805" lon="4.91852">
        <ele>101.08</ele>
        <time>2020-03-09T08:46:41Z</time>
      </trkpt>
      <trkpt lat="43.91798" lon="4.91867">
        <ele>103.96</ele>
        <time>2020-03-09T08:46:57Z</time>
      </trkpt>
      <trkpt lat="43.91798" lon="4.91864">
        <ele>104.92</ele>
        <time>2020-03-09T08:47:19Z</time>
      </trkpt>
      <trkpt lat="43.91794" lon="4.9185">
        <ele>102.52</ele>
        <time>2020-03-09T08:47:33Z</time>
      </trkpt>
      <trkpt lat="43.91786" lon="4.9185">
        <ele>100.6</ele>
        <time>2020-03-09T08:47:50Z</time>
      </trkpt>
      <trkpt lat="43.91779" lon="4.91854">
        <ele>100.6</ele>
        <time>2020-03-09T08:48:05Z</time>
      </trkpt>
      <trkpt lat="43.91766" lon="4.91857">
        <ele>98.67</ele>
        <time>2020-03-09T08:48:18Z</time>
      </trkpt>
      <trkpt lat="43.91759" lon="4.91856">
        <ele>95.79</ele>
        <time>2020-03-09T08:48:39Z</time>
      </trkpt>
      <trkpt lat="43.91754" lon="4.91871">
        <ele>94.83</ele>
        <time>2020-03-09T08:48:58Z</time>
      </trkpt>
      <trkpt lat="43.91756" lon="4.91872">
        <ele>96.27</ele>
        <time>2020-03-09T08:49:11Z</time>
      </trkpt>
      <trkpt lat="43.91753" lon="4.91862">
        <ele>94.35</ele>
        <time>2020-03-09T08:49:19Z</time>
      </trkpt>
      <trkpt lat="43.91746" lon="4.91857">
        <ele>91.46</ele>
        <time>2020-03-09T08:49:35Z</time>
      </trkpt>
      <trkpt lat="43.91731" lon="4.91868">
        <ele>88.1</ele>
        <time>2020-03-09T08:49:54Z</time>
      </trkpt>
      <trkpt lat="43.91717" lon="4.91873">
        <ele>85.21</ele>
        <time>2020-03-09T08:50:11Z</time>
      </trkpt>
      <trkpt lat="43.91706" lon="4.91886">
        <ele>84.25</ele>
        <time>2020-03-09T08:50:28Z</time>
      </trkpt>
      <trkpt lat="43.91699" lon="4.91892">
        <ele>83.29</ele>
        <time>2020-03-09T08:50:47Z</time>
      </trkpt>
      <trkpt lat="43.91683" lon="4.919">
        <ele>81.37</ele>
        <time>2020-03-09T08:51:08Z</time>
      </trkpt>
      <trkpt lat="43.91666" lon="4.91903">
        <ele>78</ele>
        <time>2020-03-09T08:51:29Z</time>
      </trkpt>
      <trkpt lat="43.91651" lon="4.91893">
        <ele>75.12</ele>
        <time>2020-03-09T08:51:51Z</time>
      </trkpt>
      <trkpt lat="43.91645" lon="4.91883">
        <ele>71.76</ele>
        <time>2020-03-09T08:52:07Z</time>
      </trkpt>
      <trkpt lat="43.91643" lon="4.91882">
        <ele>70.79</ele>
        <time>2020-03-09T08:52:09Z</time>
      </trkpt>
      <trkpt lat="43.91631" lon="4.91881">
        <ele>68.87</ele>
        <time>2020-03-09T08:52:26Z</time>
      </trkpt>
      <trkpt lat="43.91629" lon="4.91874">
        <ele>68.39</ele>
        <time>2020-03-09T08:52:45Z</time>
      </trkpt>
      <trkpt lat="43.91627" lon="4.91848">
        <ele>65.51</ele>
        <time>2020-03-09T08:53:04Z</time>
      </trkpt>
      <trkpt lat="43.91631" lon="4.91833">
        <ele>64.07</ele>
        <time>2020-03-09T08:53:14Z</time>
      </trkpt>
      <trkpt lat="43.91634" lon="4.91827">
        <ele>63.58</ele>
        <time>2020-03-09T08:53:19Z</time>
      </trkpt>
      <trkpt lat="43.9163" lon="4.91814">
        <ele>63.1</ele>
        <time>2020-03-09T08:53:32Z</time>
      </trkpt>
      <trkpt lat="43.91621" lon="4.91814">
        <ele>61.18</ele>
        <time>2020-03-09T08:53:41Z</time>
      </trkpt>
      <trkpt lat="43.91606" lon="4.91798">
        <ele>58.78</ele>
        <time>2020-03-09T08:54:01Z</time>
      </trkpt>
      <trkpt lat="43.91604" lon="4.91796">
        <ele>58.78</ele>
        <time>2020-03-09T08:54:04Z</time>
      </trkpt>
      <trkpt lat="43.91597" lon="4.91793">
        <ele>58.3</ele>
        <time>2020-03-09T08:54:10Z</time>
      </trkpt>
      <trkpt lat="43.91594" lon="4.91793">
        <ele>57.82</ele>
        <time>2020-03-09T08:54:13Z</time>
      </trkpt>
      <trkpt lat="43.9158" lon="4.918">
        <ele>57.82</ele>
        <time>2020-03-09T08:54:27Z</time>
      </trkpt>
      <trkpt lat="43.91564" lon="4.91808">
        <ele>57.82</ele>
        <time>2020-03-09T08:54:45Z</time>
      </trkpt>
      <trkpt lat="43.91547" lon="4.91817">
        <ele>57.82</ele>
        <time>2020-03-09T08:55:04Z</time>
      </trkpt>
      <trkpt lat="43.91531" lon="4.91825">
        <ele>59.26</ele>
        <time>2020-03-09T08:55:20Z</time>
      </trkpt>
      <trkpt lat="43.91521" lon="4.91829">
        <ele>59.74</ele>
        <time>2020-03-09T08:55:31Z</time>
      </trkpt>
      <trkpt lat="43.91517" lon="4.91833">
        <ele>59.74</ele>
        <time>2020-03-09T08:55:47Z</time>
      </trkpt>
      <trkpt lat="43.91517" lon="4.91834">
        <ele>59.74</ele>
        <time>2020-03-09T08:56:09Z</time>
      </trkpt>
      <trkpt lat="43.91514" lon="4.91836">
        <ele>59.26</ele>
        <time>2020-03-09T08:56:38Z</time>
      </trkpt>
      <trkpt lat="43.91513" lon="4.91835">
        <ele>58.78</ele>
        <time>2020-03-09T08:58:03Z</time>
      </trkpt>
      <trkpt lat="43.91517" lon="4.91835">
        <ele>58.78</ele>
        <time>2020-03-09T08:58:39Z</time>
      </trkpt>
      <trkpt lat="43.9152" lon="4.91836">
        <ele>58.78</ele>
        <time>2020-03-09T08:59:01Z</time>
      </trkpt>
      <trkpt lat="43.91509" lon="4.91844">
        <ele>59.26</ele>
        <time>2020-03-09T08:59:28Z</time>
      </trkpt>
      <trkpt lat="43.91505" lon="4.9186">
        <ele>59.26</ele>
        <time>2020-03-09T08:59:42Z</time>
      </trkpt>
      <trkpt lat="43.91502" lon="4.9189">
        <ele>59.74</ele>
        <time>2020-03-09T09:00:01Z</time>
      </trkpt>
      <trkpt lat="43.915" lon="4.91902">
        <ele>59.26</ele>
        <time>2020-03-09T09:00:09Z</time>
      </trkpt>
      <trkpt lat="43.91494" lon="4.91915">
        <ele>59.74</ele>
        <time>2020-03-09T09:00:24Z</time>
      </trkpt>
      <trkpt lat="43.91475" lon="4.9194">
        <ele>57.82</ele>
        <time>2020-03-09T09:00:45Z</time>
      </trkpt>
      <trkpt lat="43.91463" lon="4.91961">
        <ele>56.37</ele>
        <time>2020-03-09T09:01:03Z</time>
      </trkpt>
      <trkpt lat="43.91451" lon="4.91982">
        <ele>54.93</ele>
        <time>2020-03-09T09:01:23Z</time>
      </trkpt>
      <trkpt lat="43.91449" lon="4.91991">
        <ele>54.45</ele>
        <time>2020-03-09T09:01:31Z</time>
      </trkpt>
      <trkpt lat="43.91444" lon="4.92013">
        <ele>53.97</ele>
        <time>2020-03-09T09:01:47Z</time>
      </trkpt>
      <trkpt lat="43.91443" lon="4.92022">
        <ele>54.45</ele>
        <time>2020-03-09T09:02:09Z</time>
      </trkpt>
      <trkpt lat="43.91438" lon="4.92044">
        <ele>53.97</ele>
        <time>2020-03-09T09:02:26Z</time>
      </trkpt>
      <trkpt lat="43.91436" lon="4.92073">
        <ele>53.97</ele>
        <time>2020-03-09T09:02:43Z</time>
      </trkpt>
      <trkpt lat="43.91437" lon="4.92077">
        <ele>53.49</ele>
        <time>2020-03-09T09:02:59Z</time>
      </trkpt>
      <trkpt lat="43.91434" lon="4.92097">
        <ele>53.97</ele>
        <time>2020-03-09T09:03:18Z</time>
      </trkpt>
      <trkpt lat="43.91436" lon="4.92102">
        <ele>53.01</ele>
        <time>2020-03-09T09:03:35Z</time>
      </trkpt>
      <trkpt lat="43.91437" lon="4.92102">
        <ele>53.49</ele>
        <time>2020-03-09T09:04:08Z</time>
      </trkpt>
      <trkpt lat="43.91436" lon="4.92102">
        <ele>53.01</ele>
        <time>2020-03-09T09:05:06Z</time>
      </trkpt>
      <trkpt lat="43.91437" lon="4.92103">
        <ele>53.01</ele>
        <time>2020-03-09T09:06:23Z</time>
      </trkpt>
      <trkpt lat="43.91435" lon="4.92102">
        <ele>53.01</ele>
        <time>2020-03-09T09:07:28Z</time>
      </trkpt>
      <trkpt lat="43.91435" lon="4.92102">
        <ele>53.01</ele>
        <time>2020-03-09T09:08:38Z</time>
      </trkpt>
      <trkpt lat="43.91435" lon="4.92102">
        <ele>53.01</ele>
        <time>2020-03-09T09:10:26Z</time>
      </trkpt>
      <trkpt lat="43.91436" lon="4.92102">
        <ele>53.01</ele>
        <time>2020-03-09T09:10:59Z</time>
      </trkpt>
      <trkpt lat="43.91435" lon="4.92101">
        <ele>53.01</ele>
        <time>2020-03-09T09:11:29Z</time>
      </trkpt>
      <trkpt lat="43.91435" lon="4.92101">
        <ele>53.01</ele>
        <time>2020-03-09T09:12:02Z</time>
      </trkpt>
      <trkpt lat="43.91435" lon="4.92102">
        <ele>53.01</ele>
        <time>2020-03-09T09:12:36Z</time>
      </trkpt>
      <trkpt lat="43.91432" lon="4.92102">
        <ele>53.01</ele>
        <time>2020-03-09T09:13:04Z</time>
      </trkpt>
      <trkpt lat="43.9143" lon="4.92103">
        <ele>53.01</ele>
        <time>2020-03-09T09:13:37Z</time>
      </trkpt>
      <trkpt lat="43.91432" lon="4.92104">
        <ele>53.01</ele>
        <time>2020-03-09T09:14:04Z</time>
      </trkpt>
      <trkpt lat="43.91433" lon="4.92121">
        <ele>53.01</ele>
        <time>2020-03-09T09:14:29Z</time>
      </trkpt>
      <trkpt lat="43.91432" lon="4.92132">
        <ele>53.01</ele>
        <time>2020-03-09T09:14:39Z</time>
      </trkpt>
      <trkpt lat="43.9143" lon="4.92137">
        <ele>53.01</ele>
        <time>2020-03-09T09:14:43Z</time>
      </trkpt>
      <trkpt lat="43.91413" lon="4.92155">
        <ele>51.57</ele>
        <time>2020-03-09T09:15:01Z</time>
      </trkpt>
      <trkpt lat="43.91394" lon="4.92169">
        <ele>49.65</ele>
        <time>2020-03-09T09:15:20Z</time>
      </trkpt>
      <trkpt lat="43.91377" lon="4.92186">
        <ele>48.2</ele>
        <time>2020-03-09T09:15:38Z</time>
      </trkpt>
      <trkpt lat="43.91354" lon="4.92206">
        <ele>46.76</ele>
        <time>2020-03-09T09:16:00Z</time>
      </trkpt>
      <trkpt lat="43.91334" lon="4.92224">
        <ele>45.8</ele>
        <time>2020-03-09T09:16:20Z</time>
      </trkpt>
      <trkpt lat="43.91325" lon="4.92236">
        <ele>46.28</ele>
        <time>2020-03-09T09:16:32Z</time>
      </trkpt>
      <trkpt lat="43.91324" lon="4.9224">
        <ele>46.28</ele>
        <time>2020-03-09T09:16:35Z</time>
      </trkpt>
      <trkpt lat="43.91316" lon="4.92239">
        <ele>46.28</ele>
        <time>2020-03-09T09:16:50Z</time>
      </trkpt>
      <trkpt lat="43.91315" lon="4.92241">
        <ele>45.8</ele>
        <time>2020-03-09T09:17:12Z</time>
      </trkpt>
      <trkpt lat="43.91314" lon="4.92246">
        <ele>46.28</ele>
        <time>2020-03-09T09:17:39Z</time>
      </trkpt>
      <trkpt lat="43.91314" lon="4.92239">
        <ele>45.8</ele>
        <time>2020-03-09T09:17:54Z</time>
      </trkpt>
      <trkpt lat="43.91311" lon="4.92231">
        <ele>45.8</ele>
        <time>2020-03-09T09:18:19Z</time>
      </trkpt>
      <trkpt lat="43.91309" lon="4.92226">
        <ele>45.8</ele>
        <time>2020-03-09T09:18:22Z</time>
      </trkpt>
      <trkpt lat="43.91302" lon="4.92206">
        <ele>45.8</ele>
        <time>2020-03-09T09:18:40Z</time>
      </trkpt>
      <trkpt lat="43.91295" lon="4.92194">
        <ele>44.84</ele>
        <time>2020-03-09T09:19:01Z</time>
      </trkpt>
      <trkpt lat="43.9129" lon="4.92173">
        <ele>44.36</ele>
        <time>2020-03-09T09:19:18Z</time>
      </trkpt>
      <trkpt lat="43.91279" lon="4.92159">
        <ele>43.88</ele>
        <time>2020-03-09T09:19:36Z</time>
      </trkpt>
      <trkpt lat="43.91275" lon="4.92136">
        <ele>43.4</ele>
        <time>2020-03-09T09:19:51Z</time>
      </trkpt>
      <trkpt lat="43.91275" lon="4.92124">
        <ele>42.92</ele>
        <time>2020-03-09T09:19:59Z</time>
      </trkpt>
      <trkpt lat="43.91271" lon="4.92095">
        <ele>42.92</ele>
        <time>2020-03-09T09:20:18Z</time>
      </trkpt>
      <trkpt lat="43.91265" lon="4.92071">
        <ele>42.92</ele>
        <time>2020-03-09T09:20:35Z</time>
      </trkpt>
      <trkpt lat="43.91267" lon="4.92057">
        <ele>42.44</ele>
        <time>2020-03-09T09:20:50Z</time>
      </trkpt>
      <trkpt lat="43.91266" lon="4.92028">
        <ele>42.44</ele>
        <time>2020-03-09T09:21:08Z</time>
      </trkpt>
      <trkpt lat="43.91263" lon="4.92">
        <ele>41.95</ele>
        <time>2020-03-09T09:21:26Z</time>
      </trkpt>
      <trkpt lat="43.91261" lon="4.91973">
        <ele>41.47</ele>
        <time>2020-03-09T09:21:42Z</time>
      </trkpt>
      <trkpt lat="43.91258" lon="4.91953">
        <ele>41.95</ele>
        <time>2020-03-09T09:21:55Z</time>
      </trkpt>
      <trkpt lat="43.91257" lon="4.91932">
        <ele>41.47</ele>
        <time>2020-03-09T09:22:11Z</time>
      </trkpt>
      <trkpt lat="43.91258" lon="4.91926">
        <ele>41.95</ele>
        <time>2020-03-09T09:22:14Z</time>
      </trkpt>
      <trkpt lat="43.91257" lon="4.91916">
        <ele>41.95</ele>
        <time>2020-03-09T09:22:20Z</time>
      </trkpt>
      <trkpt lat="43.91255" lon="4.91886">
        <ele>40.99</ele>
        <time>2020-03-09T09:22:38Z</time>
      </trkpt>
      <trkpt lat="43.91252" lon="4.91859">
        <ele>40.99</ele>
        <time>2020-03-09T09:23:02Z</time>
      </trkpt>
      <trkpt lat="43.91252" lon="4.91847">
        <ele>40.99</ele>
        <time>2020-03-09T09:23:15Z</time>
      </trkpt>
      <trkpt lat="43.9125" lon="4.91838">
        <ele>40.99</ele>
        <time>2020-03-09T09:23:43Z</time>
      </trkpt>
      <trkpt lat="43.91243" lon="4.91837">
        <ele>41.47</ele>
        <time>2020-03-09T09:24:05Z</time>
      </trkpt>
      <trkpt lat="43.91243" lon="4.91841">
        <ele>41.47</ele>
        <time>2020-03-09T09:24:39Z</time>
      </trkpt>
      <trkpt lat="43.91236" lon="4.91843">
        <ele>41.95</ele>
        <time>2020-03-09T09:25:06Z</time>
      </trkpt>
      <trkpt lat="43.91226" lon="4.91847">
        <ele>41.47</ele>
        <time>2020-03-09T09:25:26Z</time>
      </trkpt>
      <trkpt lat="43.91222" lon="4.91851">
        <ele>41.47</ele>
        <time>2020-03-09T09:25:31Z</time>
      </trkpt>
      <trkpt lat="43.91202" lon="4.91858">
        <ele>41.47</ele>
        <time>2020-03-09T09:25:50Z</time>
      </trkpt>
      <trkpt lat="43.91188" lon="4.91867">
        <ele>41.47</ele>
        <time>2020-03-09T09:26:09Z</time>
      </trkpt>
      <trkpt lat="43.91167" lon="4.91878">
        <ele>41.95</ele>
        <time>2020-03-09T09:26:30Z</time>
      </trkpt>
      <trkpt lat="43.91151" lon="4.91882">
        <ele>41.95</ele>
        <time>2020-03-09T09:26:46Z</time>
      </trkpt>
      <trkpt lat="43.91135" lon="4.91889">
        <ele>43.4</ele>
        <time>2020-03-09T09:27:04Z</time>
      </trkpt>
      <trkpt lat="43.91127" lon="4.9189">
        <ele>43.4</ele>
        <time>2020-03-09T09:27:17Z</time>
      </trkpt>
      <trkpt lat="43.9111" lon="4.91898">
        <ele>43.4</ele>
        <time>2020-03-09T09:27:33Z</time>
      </trkpt>
      <trkpt lat="43.91093" lon="4.91921">
        <ele>43.88</ele>
        <time>2020-03-09T09:27:57Z</time>
      </trkpt>
      <trkpt lat="43.91084" lon="4.91936">
        <ele>44.84</ele>
        <time>2020-03-09T09:28:10Z</time>
      </trkpt>
      <trkpt lat="43.91081" lon="4.9194">
        <ele>44.84</ele>
        <time>2020-03-09T09:28:13Z</time>
      </trkpt>
      <trkpt lat="43.91066" lon="4.91961">
        <ele>45.32</ele>
        <time>2020-03-09T09:28:31Z</time>
      </trkpt>
      <trkpt lat="43.91054" lon="4.91979">
        <ele>45.8</ele>
        <time>2020-03-09T09:28:48Z</time>
      </trkpt>
      <trkpt lat="43.91039" lon="4.92001">
        <ele>47.24</ele>
        <time>2020-03-09T09:29:06Z</time>
      </trkpt>
      <trkpt lat="43.91031" lon="4.92023">
        <ele>48.2</ele>
        <time>2020-03-09T09:29:23Z</time>
      </trkpt>
      <trkpt lat="43.91024" lon="4.92024">
        <ele>48.68</ele>
        <time>2020-03-09T09:29:43Z</time>
      </trkpt>
      <trkpt lat="43.91006" lon="4.92017">
        <ele>50.13</ele>
        <time>2020-03-09T09:30:03Z</time>
      </trkpt>
      <trkpt lat="43.91005" lon="4.92016">
        <ele>50.13</ele>
        <time>2020-03-09T09:30:04Z</time>
      </trkpt>
      <trkpt lat="43.90987" lon="4.92008">
        <ele>50.61</ele>
        <time>2020-03-09T09:30:23Z</time>
      </trkpt>
      <trkpt lat="43.90969" lon="4.91995">
        <ele>50.61</ele>
        <time>2020-03-09T09:30:41Z</time>
      </trkpt>
      <trkpt lat="43.90961" lon="4.91987">
        <ele>50.61</ele>
        <time>2020-03-09T09:30:53Z</time>
      </trkpt>
      <trkpt lat="43.90946" lon="4.9197">
        <ele>51.57</ele>
        <time>2020-03-09T09:31:13Z</time>
      </trkpt>
      <trkpt lat="43.90923" lon="4.91968">
        <ele>51.57</ele>
        <time>2020-03-09T09:31:33Z</time>
      </trkpt>
      <trkpt lat="43.90903" lon="4.91964">
        <ele>51.57</ele>
        <time>2020-03-09T09:31:50Z</time>
      </trkpt>
      <trkpt lat="43.909" lon="4.91963">
        <ele>52.05</ele>
        <time>2020-03-09T09:31:53Z</time>
      </trkpt>
      <trkpt lat="43.90874" lon="4.91965">
        <ele>53.01</ele>
        <time>2020-03-09T09:32:15Z</time>
      </trkpt>
      <trkpt lat="43.90854" lon="4.91958">
        <ele>53.97</ele>
        <time>2020-03-09T09:32:34Z</time>
      </trkpt>
      <trkpt lat="43.90852" lon="4.91954">
        <ele>53.97</ele>
        <time>2020-03-09T09:32:37Z</time>
      </trkpt>
      <trkpt lat="43.9085" lon="4.91943">
        <ele>52.53</ele>
        <time>2020-03-09T09:32:44Z</time>
      </trkpt>
      <trkpt lat="43.90855" lon="4.91933">
        <ele>52.53</ele>
        <time>2020-03-09T09:32:52Z</time>
      </trkpt>
      <trkpt lat="43.90867" lon="4.9191">
        <ele>51.57</ele>
        <time>2020-03-09T09:33:09Z</time>
      </trkpt>
      <trkpt lat="43.90875" lon="4.91898">
        <ele>50.61</ele>
        <time>2020-03-09T09:33:19Z</time>
      </trkpt>
      <trkpt lat="43.90878" lon="4.91886">
        <ele>49.65</ele>
        <time>2020-03-09T09:33:35Z</time>
      </trkpt>
      <trkpt lat="43.90861" lon="4.91887">
        <ele>49.65</ele>
        <time>2020-03-09T09:33:56Z</time>
      </trkpt>
      <trkpt lat="43.90846" lon="4.91886">
        <ele>50.61</ele>
        <time>2020-03-09T09:34:13Z</time>
      </trkpt>
      <trkpt lat="43.9083" lon="4.91883">
        <ele>50.61</ele>
        <time>2020-03-09T09:34:31Z</time>
      </trkpt>
      <trkpt lat="43.90811" lon="4.91879">
        <ele>52.53</ele>
        <time>2020-03-09T09:34:55Z</time>
      </trkpt>
      <trkpt lat="43.90791" lon="4.91878">
        <ele>53.97</ele>
        <time>2020-03-09T09:35:21Z</time>
      </trkpt>
      <trkpt lat="43.90771" lon="4.91885">
        <ele>53.97</ele>
        <time>2020-03-09T09:35:44Z</time>
      </trkpt>
      <trkpt lat="43.90757" lon="4.91884">
        <ele>54.93</ele>
        <time>2020-03-09T09:36:02Z</time>
      </trkpt>
      <trkpt lat="43.9076" lon="4.91873">
        <ele>54.45</ele>
        <time>2020-03-09T09:36:20Z</time>
      </trkpt>
      <trkpt lat="43.90752" lon="4.91865">
        <ele>53.97</ele>
        <time>2020-03-09T09:36:36Z</time>
      </trkpt>
      <trkpt lat="43.90744" lon="4.91866">
        <ele>53.97</ele>
        <time>2020-03-09T09:36:46Z</time>
      </trkpt>
      <trkpt lat="43.90724" lon="4.91868">
        <ele>53.97</ele>
        <time>2020-03-09T09:37:07Z</time>
      </trkpt>
      <trkpt lat="43.90709" lon="4.91867">
        <ele>53.97</ele>
        <time>2020-03-09T09:37:26Z</time>
      </trkpt>
      <trkpt lat="43.90689" lon="4.91862">
        <ele>53.49</ele>
        <time>2020-03-09T09:37:49Z</time>
      </trkpt>
      <trkpt lat="43.90673" lon="4.91859">
        <ele>53.01</ele>
        <time>2020-03-09T09:38:07Z</time>
      </trkpt>
      <trkpt lat="43.90664" lon="4.91855">
        <ele>52.05</ele>
        <time>2020-03-09T09:38:18Z</time>
      </trkpt>
      <trkpt lat="43.90651" lon="4.91838">
        <ele>51.09</ele>
        <time>2020-03-09T09:38:35Z</time>
      </trkpt>
      <trkpt lat="43.90642" lon="4.91828">
        <ele>50.61</ele>
        <time>2020-03-09T09:38:50Z</time>
      </trkpt>
      <trkpt lat="43.90628" lon="4.91808">
        <ele>49.16</ele>
        <time>2020-03-09T09:39:09Z</time>
      </trkpt>
      <trkpt lat="43.90617" lon="4.91791">
        <ele>48.68</ele>
        <time>2020-03-09T09:39:26Z</time>
      </trkpt>
      <trkpt lat="43.90604" lon="4.91771">
        <ele>48.2</ele>
        <time>2020-03-09T09:39:47Z</time>
      </trkpt>
      <trkpt lat="43.90592" lon="4.91746">
        <ele>48.2</ele>
        <time>2020-03-09T09:40:06Z</time>
      </trkpt>
      <trkpt lat="43.90589" lon="4.91742">
        <ele>48.68</ele>
        <time>2020-03-09T09:40:26Z</time>
      </trkpt>
      <trkpt lat="43.90586" lon="4.91739">
        <ele>48.2</ele>
        <time>2020-03-09T09:40:46Z</time>
      </trkpt>
      <trkpt lat="43.90586" lon="4.9174">
        <ele>48.2</ele>
        <time>2020-03-09T09:41:14Z</time>
      </trkpt>
      <trkpt lat="43.90584" lon="4.91741">
        <ele>48.2</ele>
        <time>2020-03-09T09:41:45Z</time>
      </trkpt>
      <trkpt lat="43.90584" lon="4.91738">
        <ele>48.2</ele>
        <time>2020-03-09T09:42:06Z</time>
      </trkpt>
      <trkpt lat="43.90577" lon="4.91745">
        <ele>47.72</ele>
        <time>2020-03-09T09:42:22Z</time>
      </trkpt>
      <trkpt lat="43.90563" lon="4.91757">
        <ele>48.2</ele>
        <time>2020-03-09T09:42:42Z</time>
      </trkpt>
      <trkpt lat="43.9055" lon="4.91768">
        <ele>49.16</ele>
        <time>2020-03-09T09:43:01Z</time>
      </trkpt>
      <trkpt lat="43.90535" lon="4.91782">
        <ele>49.65</ele>
        <time>2020-03-09T09:43:21Z</time>
      </trkpt>
      <trkpt lat="43.90529" lon="4.91789">
        <ele>50.13</ele>
        <time>2020-03-09T09:43:42Z</time>
      </trkpt>
      <trkpt lat="43.90515" lon="4.91807">
        <ele>50.61</ele>
        <time>2020-03-09T09:44:03Z</time>
      </trkpt>
      <trkpt lat="43.90502" lon="4.91815">
        <ele>51.09</ele>
        <time>2020-03-09T09:44:20Z</time>
      </trkpt>
      <trkpt lat="43.90483" lon="4.91814">
        <ele>51.09</ele>
        <time>2020-03-09T09:44:38Z</time>
      </trkpt>
      <trkpt lat="43.90463" lon="4.91818">
        <ele>51.57</ele>
        <time>2020-03-09T09:44:59Z</time>
      </trkpt>
      <trkpt lat="43.90462" lon="4.91822">
        <ele>51.57</ele>
        <time>2020-03-09T09:45:02Z</time>
      </trkpt>
      <trkpt lat="43.90457" lon="4.91844">
        <ele>51.57</ele>
        <time>2020-03-09T09:45:22Z</time>
      </trkpt>
      <trkpt lat="43.90441" lon="4.91845">
        <ele>53.01</ele>
        <time>2020-03-09T09:45:40Z</time>
      </trkpt>
      <trkpt lat="43.90422" lon="4.9184">
        <ele>52.05</ele>
        <time>2020-03-09T09:45:58Z</time>
      </trkpt>
      <trkpt lat="43.90398" lon="4.91831">
        <ele>51.57</ele>
        <time>2020-03-09T09:46:22Z</time>
      </trkpt>
      <trkpt lat="43.90385" lon="4.91823">
        <ele>52.05</ele>
        <time>2020-03-09T09:46:41Z</time>
      </trkpt>
      <trkpt lat="43.9037" lon="4.9182">
        <ele>52.05</ele>
        <time>2020-03-09T09:46:55Z</time>
      </trkpt>
      <trkpt lat="43.90353" lon="4.91811">
        <ele>52.05</ele>
        <time>2020-03-09T09:47:16Z</time>
      </trkpt>
      <trkpt lat="43.90337" lon="4.91809">
        <ele>51.09</ele>
        <time>2020-03-09T09:47:33Z</time>
      </trkpt>
      <trkpt lat="43.90313" lon="4.91802">
        <ele>51.57</ele>
        <time>2020-03-09T09:47:52Z</time>
      </trkpt>
      <trkpt lat="43.90292" lon="4.91791">
        <ele>51.57</ele>
        <time>2020-03-09T09:48:12Z</time>
      </trkpt>
      <trkpt lat="43.90281" lon="4.9179">
        <ele>52.53</ele>
        <time>2020-03-09T09:48:26Z</time>
      </trkpt>
      <trkpt lat="43.90278" lon="4.9179">
        <ele>52.53</ele>
        <time>2020-03-09T09:48:28Z</time>
      </trkpt>
      <trkpt lat="43.90259" lon="4.91792">
        <ele>52.05</ele>
        <time>2020-03-09T09:48:46Z</time>
      </trkpt>
      <trkpt lat="43.90243" lon="4.91789">
        <ele>52.53</ele>
        <time>2020-03-09T09:49:01Z</time>
      </trkpt>
      <trkpt lat="43.9022" lon="4.91778">
        <ele>53.49</ele>
        <time>2020-03-09T09:49:22Z</time>
      </trkpt>
      <trkpt lat="43.90197" lon="4.91771">
        <ele>53.97</ele>
        <time>2020-03-09T09:49:43Z</time>
      </trkpt>
      <trkpt lat="43.90185" lon="4.91768">
        <ele>54.45</ele>
        <time>2020-03-09T09:49:54Z</time>
      </trkpt>
      <trkpt lat="43.9018" lon="4.91766">
        <ele>54.93</ele>
        <time>2020-03-09T09:49:58Z</time>
      </trkpt>
      <trkpt lat="43.90157" lon="4.9176">
        <ele>55.89</ele>
        <time>2020-03-09T09:50:20Z</time>
      </trkpt>
      <trkpt lat="43.90139" lon="4.91758">
        <ele>56.37</ele>
        <time>2020-03-09T09:50:39Z</time>
      </trkpt>
      <trkpt lat="43.90119" lon="4.91754">
        <ele>57.34</ele>
        <time>2020-03-09T09:50:58Z</time>
      </trkpt>
      <trkpt lat="43.90097" lon="4.9175">
        <ele>58.78</ele>
        <time>2020-03-09T09:51:17Z</time>
      </trkpt>
      <trkpt lat="43.90079" lon="4.9175">
        <ele>60.22</ele>
        <time>2020-03-09T09:51:36Z</time>
      </trkpt>
      <trkpt lat="43.90066" lon="4.9175">
        <ele>61.18</ele>
        <time>2020-03-09T09:51:53Z</time>
      </trkpt>
      <trkpt lat="43.90049" lon="4.91752">
        <ele>60.22</ele>
        <time>2020-03-09T09:52:09Z</time>
      </trkpt>
      <trkpt lat="43.90032" lon="4.91753">
        <ele>59.26</ele>
        <time>2020-03-09T09:52:26Z</time>
      </trkpt>
      <trkpt lat="43.90014" lon="4.91751">
        <ele>59.26</ele>
        <time>2020-03-09T09:52:44Z</time>
      </trkpt>
      <trkpt lat="43.89994" lon="4.91752">
        <ele>59.74</ele>
        <time>2020-03-09T09:53:05Z</time>
      </trkpt>
      <trkpt lat="43.8998" lon="4.91751">
        <ele>59.74</ele>
        <time>2020-03-09T09:53:22Z</time>
      </trkpt>
      <trkpt lat="43.8996" lon="4.9175">
        <ele>60.7</ele>
        <time>2020-03-09T09:53:40Z</time>
      </trkpt>
      <trkpt lat="43.89939" lon="4.91749">
        <ele>60.7</ele>
        <time>2020-03-09T09:54:00Z</time>
      </trkpt>
      <trkpt lat="43.89918" lon="4.91747">
        <ele>60.22</ele>
        <time>2020-03-09T09:54:22Z</time>
      </trkpt>
      <trkpt lat="43.89912" lon="4.9175">
        <ele>60.22</ele>
        <time>2020-03-09T09:54:39Z</time>
      </trkpt>
      <trkpt lat="43.89903" lon="4.91748">
        <ele>61.18</ele>
        <time>2020-03-09T09:54:58Z</time>
      </trkpt>
      <trkpt lat="43.89891" lon="4.91748">
        <ele>61.18</ele>
        <time>2020-03-09T09:55:16Z</time>
      </trkpt>
      <trkpt lat="43.89874" lon="4.91748">
        <ele>62.14</ele>
        <time>2020-03-09T09:55:33Z</time>
      </trkpt>
      <trkpt lat="43.89856" lon="4.91745">
        <ele>61.18</ele>
        <time>2020-03-09T09:55:53Z</time>
      </trkpt>
      <trkpt lat="43.89852" lon="4.91753">
        <ele>61.66</ele>
        <time>2020-03-09T09:56:08Z</time>
      </trkpt>
      <trkpt lat="43.89852" lon="4.91752">
        <ele>61.66</ele>
        <time>2020-03-09T09:56:39Z</time>
      </trkpt>
      <trkpt lat="43.89853" lon="4.91752">
        <ele>61.66</ele>
        <time>2020-03-09T09:57:00Z</time>
      </trkpt>
      <trkpt lat="43.89852" lon="4.91753">
        <ele>61.66</ele>
        <time>2020-03-09T09:57:33Z</time>
      </trkpt>
      <trkpt lat="43.89855" lon="4.91757">
        <ele>61.66</ele>
        <time>2020-03-09T09:57:50Z</time>
      </trkpt>
      <trkpt lat="43.89857" lon="4.91781">
        <ele>62.62</ele>
        <time>2020-03-09T09:58:06Z</time>
      </trkpt>
      <trkpt lat="43.89865" lon="4.91812">
        <ele>63.1</ele>
        <time>2020-03-09T09:58:28Z</time>
      </trkpt>
      <trkpt lat="43.8987" lon="4.91835">
        <ele>63.58</ele>
        <time>2020-03-09T09:58:45Z</time>
      </trkpt>
      <trkpt lat="43.89876" lon="4.91861">
        <ele>65.03</ele>
        <time>2020-03-09T09:59:05Z</time>
      </trkpt>
      <trkpt lat="43.89877" lon="4.91868">
        <ele>65.03</ele>
        <time>2020-03-09T09:59:10Z</time>
      </trkpt>
      <trkpt lat="43.8988" lon="4.91877">
        <ele>65.99</ele>
        <time>2020-03-09T09:59:18Z</time>
      </trkpt>
      <trkpt lat="43.89886" lon="4.91899">
        <ele>67.91</ele>
        <time>2020-03-09T09:59:34Z</time>
      </trkpt>
      <trkpt lat="43.89888" lon="4.91902">
        <ele>67.91</ele>
        <time>2020-03-09T09:59:38Z</time>
      </trkpt>
      <trkpt lat="43.89889" lon="4.91906">
        <ele>68.87</ele>
        <time>2020-03-09T09:59:41Z</time>
      </trkpt>
      <trkpt lat="43.89893" lon="4.91918">
        <ele>69.83</ele>
        <time>2020-03-09T09:59:50Z</time>
      </trkpt>
      <trkpt lat="43.89896" lon="4.91935">
        <ele>70.31</ele>
        <time>2020-03-09T10:00:08Z</time>
      </trkpt>
      <trkpt lat="43.89896" lon="4.91937">
        <ele>70.31</ele>
        <time>2020-03-09T10:00:09Z</time>
      </trkpt>
      <trkpt lat="43.89897" lon="4.9194">
        <ele>69.83</ele>
        <time>2020-03-09T10:00:11Z</time>
      </trkpt>
      <trkpt lat="43.89901" lon="4.91962">
        <ele>66.47</ele>
        <time>2020-03-09T10:00:30Z</time>
      </trkpt>
      <trkpt lat="43.89889" lon="4.9196">
        <ele>63.1</ele>
        <time>2020-03-09T10:00:46Z</time>
      </trkpt>
      <trkpt lat="43.89877" lon="4.91959">
        <ele>60.22</ele>
        <time>2020-03-09T10:01:01Z</time>
      </trkpt>
      <trkpt lat="43.89872" lon="4.91956">
        <ele>57.34</ele>
        <time>2020-03-09T10:01:13Z</time>
      </trkpt>
      <trkpt lat="43.89859" lon="4.91949">
        <ele>53.97</ele>
        <time>2020-03-09T10:01:29Z</time>
      </trkpt>
      <trkpt lat="43.89856" lon="4.91947">
        <ele>53.01</ele>
        <time>2020-03-09T10:01:32Z</time>
      </trkpt>
      <trkpt lat="43.8985" lon="4.91943">
        <ele>51.09</ele>
        <time>2020-03-09T10:01:38Z</time>
      </trkpt>
      <trkpt lat="43.8983" lon="4.91934">
        <ele>47.72</ele>
        <time>2020-03-09T10:01:56Z</time>
      </trkpt>
      <trkpt lat="43.89813" lon="4.91926">
        <ele>44.84</ele>
        <time>2020-03-09T10:02:13Z</time>
      </trkpt>
      <trkpt lat="43.89792" lon="4.91922">
        <ele>44.36</ele>
        <time>2020-03-09T10:02:33Z</time>
      </trkpt>
      <trkpt lat="43.89785" lon="4.91936">
        <ele>43.4</ele>
        <time>2020-03-09T10:02:48Z</time>
      </trkpt>
      <trkpt lat="43.89783" lon="4.91953">
        <ele>43.4</ele>
        <time>2020-03-09T10:03:04Z</time>
      </trkpt>
      <trkpt lat="43.89782" lon="4.91963">
        <ele>42.92</ele>
        <time>2020-03-09T10:03:11Z</time>
      </trkpt>
      <trkpt lat="43.89779" lon="4.91993">
        <ele>43.4</ele>
        <time>2020-03-09T10:03:30Z</time>
      </trkpt>
      <trkpt lat="43.89776" lon="4.92021">
        <ele>44.36</ele>
        <time>2020-03-09T10:03:47Z</time>
      </trkpt>
      <trkpt lat="43.89774" lon="4.92046">
        <ele>45.8</ele>
        <time>2020-03-09T10:04:04Z</time>
      </trkpt>
      <trkpt lat="43.89769" lon="4.92056">
        <ele>44.84</ele>
        <time>2020-03-09T10:04:20Z</time>
      </trkpt>
      <trkpt lat="43.8977" lon="4.92055">
        <ele>44.84</ele>
        <time>2020-03-09T10:04:51Z</time>
      </trkpt>
      <trkpt lat="43.89771" lon="4.92052">
        <ele>45.8</ele>
        <time>2020-03-09T10:05:23Z</time>
      </trkpt>
      <trkpt lat="43.89771" lon="4.92054">
        <ele>45.32</ele>
        <time>2020-03-09T10:05:56Z</time>
      </trkpt>
      <trkpt lat="43.89767" lon="4.92056">
        <ele>45.8</ele>
        <time>2020-03-09T10:06:26Z</time>
      </trkpt>
      <trkpt lat="43.89767" lon="4.92058">
        <ele>45.8</ele>
        <time>2020-03-09T10:06:27Z</time>
      </trkpt>
      <trkpt lat="43.89764" lon="4.92081">
        <ele>45.32</ele>
        <time>2020-03-09T10:06:42Z</time>
      </trkpt>
      <trkpt lat="43.89755" lon="4.92106">
        <ele>46.28</ele>
        <time>2020-03-09T10:06:59Z</time>
      </trkpt>
      <trkpt lat="43.89749" lon="4.92128">
        <ele>46.76</ele>
        <time>2020-03-09T10:07:15Z</time>
      </trkpt>
      <trkpt lat="43.89759" lon="4.92148">
        <ele>50.13</ele>
        <time>2020-03-09T10:07:31Z</time>
      </trkpt>
      <trkpt lat="43.89758" lon="4.92165">
        <ele>51.09</ele>
        <time>2020-03-09T10:07:44Z</time>
      </trkpt>
      <trkpt lat="43.89764" lon="4.92197">
        <ele>52.53</ele>
        <time>2020-03-09T10:08:05Z</time>
      </trkpt>
      <trkpt lat="43.89773" lon="4.92228">
        <ele>53.01</ele>
        <time>2020-03-09T10:08:25Z</time>
      </trkpt>
      <trkpt lat="43.89778" lon="4.92255">
        <ele>54.45</ele>
        <time>2020-03-09T10:08:43Z</time>
      </trkpt>
      <trkpt lat="43.89778" lon="4.92278">
        <ele>55.41</ele>
        <time>2020-03-09T10:09:02Z</time>
      </trkpt>
      <trkpt lat="43.89774" lon="4.92278">
        <ele>54.93</ele>
        <time>2020-03-09T10:09:06Z</time>
      </trkpt>
      <trkpt lat="43.89752" lon="4.92275">
        <ele>52.05</ele>
        <time>2020-03-09T10:09:28Z</time>
      </trkpt>
      <trkpt lat="43.89734" lon="4.9227">
        <ele>51.09</ele>
        <time>2020-03-09T10:09:46Z</time>
      </trkpt>
      <trkpt lat="43.89711" lon="4.92269">
        <ele>50.13</ele>
        <time>2020-03-09T10:10:06Z</time>
      </trkpt>
      <trkpt lat="43.89704" lon="4.92279">
        <ele>50.13</ele>
        <time>2020-03-09T10:10:24Z</time>
      </trkpt>
      <trkpt lat="43.89703" lon="4.92284">
        <ele>48.2</ele>
        <time>2020-03-09T10:10:41Z</time>
      </trkpt>
      <trkpt lat="43.89696" lon="4.92289">
        <ele>48.2</ele>
        <time>2020-03-09T10:11:14Z</time>
      </trkpt>
      <trkpt lat="43.89693" lon="4.92294">
        <ele>48.68</ele>
        <time>2020-03-09T10:11:19Z</time>
      </trkpt>
      <trkpt lat="43.89692" lon="4.92293">
        <ele>49.16</ele>
        <time>2020-03-09T10:11:34Z</time>
      </trkpt>
      <trkpt lat="43.89691" lon="4.92274">
        <ele>47.72</ele>
        <time>2020-03-09T10:11:50Z</time>
      </trkpt>
      <trkpt lat="43.8969" lon="4.9227">
        <ele>47.72</ele>
        <time>2020-03-09T10:11:53Z</time>
      </trkpt>
      <trkpt lat="43.89667" lon="4.9227">
        <ele>46.28</ele>
        <time>2020-03-09T10:12:12Z</time>
      </trkpt>
      <trkpt lat="43.89651" lon="4.92273">
        <ele>46.76</ele>
        <time>2020-03-09T10:12:31Z</time>
      </trkpt>
      <trkpt lat="43.89641" lon="4.9227">
        <ele>46.76</ele>
        <time>2020-03-09T10:12:43Z</time>
      </trkpt>
      <trkpt lat="43.89637" lon="4.92271">
        <ele>46.76</ele>
        <time>2020-03-09T10:12:46Z</time>
      </trkpt>
      <trkpt lat="43.89614" lon="4.92273">
        <ele>47.24</ele>
        <time>2020-03-09T10:13:04Z</time>
      </trkpt>
      <trkpt lat="43.89586" lon="4.92274">
        <ele>48.2</ele>
        <time>2020-03-09T10:13:24Z</time>
      </trkpt>
      <trkpt lat="43.89565" lon="4.92278">
        <ele>49.16</ele>
        <time>2020-03-09T10:13:44Z</time>
      </trkpt>
      <trkpt lat="43.89554" lon="4.92282">
        <ele>48.2</ele>
        <time>2020-03-09T10:13:54Z</time>
      </trkpt>
      <trkpt lat="43.89554" lon="4.92286">
        <ele>48.2</ele>
        <time>2020-03-09T10:13:57Z</time>
      </trkpt>
      <trkpt lat="43.89568" lon="4.92307">
        <ele>48.68</ele>
        <time>2020-03-09T10:14:15Z</time>
      </trkpt>
      <trkpt lat="43.8958" lon="4.92328">
        <ele>48.68</ele>
        <time>2020-03-09T10:14:31Z</time>
      </trkpt>
      <trkpt lat="43.89595" lon="4.92347">
        <ele>49.65</ele>
        <time>2020-03-09T10:14:49Z</time>
      </trkpt>
      <trkpt lat="43.89602" lon="4.92368">
        <ele>50.13</ele>
        <time>2020-03-09T10:15:05Z</time>
      </trkpt>
      <trkpt lat="43.89604" lon="4.92374">
        <ele>50.61</ele>
        <time>2020-03-09T10:15:09Z</time>
      </trkpt>
      <trkpt lat="43.89604" lon="4.92391">
        <ele>50.61</ele>
        <time>2020-03-09T10:15:24Z</time>
      </trkpt>
      <trkpt lat="43.89605" lon="4.92391">
        <ele>51.09</ele>
        <time>2020-03-09T10:15:42Z</time>
      </trkpt>
      <trkpt lat="43.8961" lon="4.92403">
        <ele>51.57</ele>
        <time>2020-03-09T10:15:55Z</time>
      </trkpt>
      <trkpt lat="43.89619" lon="4.92431">
        <ele>52.53</ele>
        <time>2020-03-09T10:16:13Z</time>
      </trkpt>
      <trkpt lat="43.89632" lon="4.92457">
        <ele>53.49</ele>
        <time>2020-03-09T10:16:31Z</time>
      </trkpt>
      <trkpt lat="43.89643" lon="4.92479">
        <ele>53.97</ele>
        <time>2020-03-09T10:16:47Z</time>
      </trkpt>
      <trkpt lat="43.89649" lon="4.92504">
        <ele>55.41</ele>
        <time>2020-03-09T10:17:04Z</time>
      </trkpt>
      <trkpt lat="43.89664" lon="4.92542">
        <ele>57.34</ele>
        <time>2020-03-09T10:17:30Z</time>
      </trkpt>
      <trkpt lat="43.8967" lon="4.92567">
        <ele>57.34</ele>
        <time>2020-03-09T10:17:49Z</time>
      </trkpt>
      <trkpt lat="43.8968" lon="4.92576">
        <ele>57.34</ele>
        <time>2020-03-09T10:18:02Z</time>
      </trkpt>
      <trkpt lat="43.89685" lon="4.92578">
        <ele>58.78</ele>
        <time>2020-03-09T10:18:14Z</time>
      </trkpt>
      <trkpt lat="43.89683" lon="4.92576">
        <ele>58.78</ele>
        <time>2020-03-09T10:18:16Z</time>
      </trkpt>
      <trkpt lat="43.89677" lon="4.92573">
        <ele>58.3</ele>
        <time>2020-03-09T10:18:20Z</time>
      </trkpt>
      <trkpt lat="43.89662" lon="4.92569">
        <ele>56.86</ele>
        <time>2020-03-09T10:18:37Z</time>
      </trkpt>
      <trkpt lat="43.89662" lon="4.92566">
        <ele>57.34</ele>
        <time>2020-03-09T10:19:01Z</time>
      </trkpt>
      <trkpt lat="43.89666" lon="4.92578">
        <ele>57.34</ele>
        <time>2020-03-09T10:19:19Z</time>
      </trkpt>
      <trkpt lat="43.89665" lon="4.92579">
        <ele>57.34</ele>
        <time>2020-03-09T10:19:35Z</time>
      </trkpt>
      <trkpt lat="43.89668" lon="4.9257">
        <ele>57.34</ele>
        <time>2020-03-09T10:19:47Z</time>
      </trkpt>
      <trkpt lat="43.89673" lon="4.9257">
        <ele>57.34</ele>
        <time>2020-03-09T10:19:51Z</time>
      </trkpt>
      <trkpt lat="43.89693" lon="4.92586">
        <ele>58.3</ele>
        <time>2020-03-09T10:20:07Z</time>
      </trkpt>
      <trkpt lat="43.89711" lon="4.92601">
        <ele>61.18</ele>
        <time>2020-03-09T10:20:24Z</time>
      </trkpt>
      <trkpt lat="43.8971" lon="4.926">
        <ele>62.14</ele>
        <time>2020-03-09T10:20:30Z</time>
      </trkpt>
      <trkpt lat="43.89695" lon="4.92587">
        <ele>59.74</ele>
        <time>2020-03-09T10:20:45Z</time>
      </trkpt>
      <trkpt lat="43.8968" lon="4.92575">
        <ele>57.82</ele>
        <time>2020-03-09T10:21:01Z</time>
      </trkpt>
      <trkpt lat="43.89677" lon="4.92573">
        <ele>57.82</ele>
        <time>2020-03-09T10:21:04Z</time>
      </trkpt>
      <trkpt lat="43.89666" lon="4.9257">
        <ele>57.82</ele>
        <time>2020-03-09T10:21:21Z</time>
      </trkpt>
      <trkpt lat="43.89645" lon="4.92563">
        <ele>58.3</ele>
        <time>2020-03-09T10:21:39Z</time>
      </trkpt>
      <trkpt lat="43.89642" lon="4.92569">
        <ele>58.78</ele>
        <time>2020-03-09T10:21:45Z</time>
      </trkpt>
      <trkpt lat="43.89646" lon="4.92589">
        <ele>61.66</ele>
        <time>2020-03-09T10:21:59Z</time>
      </trkpt>
      <trkpt lat="43.89646" lon="4.92603">
        <ele>62.62</ele>
        <time>2020-03-09T10:22:09Z</time>
      </trkpt>
      <trkpt lat="43.89646" lon="4.92633">
        <ele>64.07</ele>
        <time>2020-03-09T10:22:29Z</time>
      </trkpt>
      <trkpt lat="43.89642" lon="4.92643">
        <ele>65.03</ele>
        <time>2020-03-09T10:22:39Z</time>
      </trkpt>
      <trkpt lat="43.89642" lon="4.92662">
        <ele>65.03</ele>
        <time>2020-03-09T10:22:56Z</time>
      </trkpt>
      <trkpt lat="43.89646" lon="4.92672">
        <ele>66.47</ele>
        <time>2020-03-09T10:23:10Z</time>
      </trkpt>
      <trkpt lat="43.89648" lon="4.92678">
        <ele>66.47</ele>
        <time>2020-03-09T10:23:25Z</time>
      </trkpt>
      <trkpt lat="43.89653" lon="4.92687">
        <ele>67.43</ele>
        <time>2020-03-09T10:23:31Z</time>
      </trkpt>
      <trkpt lat="43.89656" lon="4.92697">
        <ele>68.87</ele>
        <time>2020-03-09T10:23:43Z</time>
      </trkpt>
      <trkpt lat="43.89656" lon="4.92718">
        <ele>69.83</ele>
        <time>2020-03-09T10:24:01Z</time>
      </trkpt>
      <trkpt lat="43.89651" lon="4.92723">
        <ele>73.2</ele>
        <time>2020-03-09T10:24:16Z</time>
      </trkpt>
      <trkpt lat="43.89642" lon="4.92727">
        <ele>74.64</ele>
        <time>2020-03-09T10:24:33Z</time>
      </trkpt>
      <trkpt lat="43.89638" lon="4.92736">
        <ele>77.52</ele>
        <time>2020-03-09T10:24:46Z</time>
      </trkpt>
      <trkpt lat="43.89638" lon="4.92741">
        <ele>79.45</ele>
        <time>2020-03-09T10:25:02Z</time>
      </trkpt>
      <trkpt lat="43.89627" lon="4.92743">
        <ele>81.37</ele>
        <time>2020-03-09T10:25:21Z</time>
      </trkpt>
      <trkpt lat="43.89621" lon="4.92756">
        <ele>84.25</ele>
        <time>2020-03-09T10:25:36Z</time>
      </trkpt>
      <trkpt lat="43.8962" lon="4.92764">
        <ele>87.62</ele>
        <time>2020-03-09T10:25:46Z</time>
      </trkpt>
      <trkpt lat="43.89618" lon="4.92787">
        <ele>90.02</ele>
        <time>2020-03-09T10:26:03Z</time>
      </trkpt>
      <trkpt lat="43.89615" lon="4.92797">
        <ele>91.94</ele>
        <time>2020-03-09T10:26:26Z</time>
      </trkpt>
      <trkpt lat="43.89615" lon="4.928">
        <ele>90.98</ele>
        <time>2020-03-09T10:26:51Z</time>
      </trkpt>
      <trkpt lat="43.89618" lon="4.92798">
        <ele>90.5</ele>
        <time>2020-03-09T10:27:24Z</time>
      </trkpt>
      <trkpt lat="43.89618" lon="4.92798">
        <ele>90.98</ele>
        <time>2020-03-09T10:27:49Z</time>
      </trkpt>
      <trkpt lat="43.89616" lon="4.92814">
        <ele>91.94</ele>
        <time>2020-03-09T10:28:13Z</time>
      </trkpt>
      <trkpt lat="43.89614" lon="4.92836">
        <ele>94.83</ele>
        <time>2020-03-09T10:28:31Z</time>
      </trkpt>
      <trkpt lat="43.8962" lon="4.92854">
        <ele>97.71</ele>
        <time>2020-03-09T10:28:50Z</time>
      </trkpt>
      <trkpt lat="43.89617" lon="4.92846">
        <ele>96.27</ele>
        <time>2020-03-09T10:29:00Z</time>
      </trkpt>
      <trkpt lat="43.89612" lon="4.92841">
        <ele>95.79</ele>
        <time>2020-03-09T10:29:15Z</time>
      </trkpt>
      <trkpt lat="43.89604" lon="4.92844">
        <ele>98.19</ele>
        <time>2020-03-09T10:29:34Z</time>
      </trkpt>
      <trkpt lat="43.89601" lon="4.92844">
        <ele>100.11</ele>
        <time>2020-03-09T10:30:00Z</time>
      </trkpt>
      <trkpt lat="43.89592" lon="4.92844">
        <ele>101.08</ele>
        <time>2020-03-09T10:30:23Z</time>
      </trkpt>
      <trkpt lat="43.89586" lon="4.92852">
        <ele>103.96</ele>
        <time>2020-03-09T10:30:43Z</time>
      </trkpt>
      <trkpt lat="43.89577" lon="4.92863">
        <ele>107.32</ele>
        <time>2020-03-09T10:31:03Z</time>
      </trkpt>
      <trkpt lat="43.89576" lon="4.92863">
        <ele>108.29</ele>
        <time>2020-03-09T10:31:05Z</time>
      </trkpt>
      <trkpt lat="43.89571" lon="4.92876">
        <ele>110.69</ele>
        <time>2020-03-09T10:31:23Z</time>
      </trkpt>
      <trkpt lat="43.89568" lon="4.92888">
        <ele>111.17</ele>
        <time>2020-03-09T10:31:38Z</time>
      </trkpt>
      <trkpt lat="43.8956" lon="4.92883">
        <ele>111.65</ele>
        <time>2020-03-09T10:31:49Z</time>
      </trkpt>
      <trkpt lat="43.89546" lon="4.92873">
        <ele>112.61</ele>
        <time>2020-03-09T10:32:07Z</time>
      </trkpt>
      <trkpt lat="43.89529" lon="4.92859">
        <ele>111.65</ele>
        <time>2020-03-09T10:32:28Z</time>
      </trkpt>
      <trkpt lat="43.89512" lon="4.92847">
        <ele>112.13</ele>
        <time>2020-03-09T10:32:46Z</time>
      </trkpt>
      <trkpt lat="43.89493" lon="4.92837">
        <ele>113.09</ele>
        <time>2020-03-09T10:33:07Z</time>
      </trkpt>
      <trkpt lat="43.8947" lon="4.92826">
        <ele>112.61</ele>
        <time>2020-03-09T10:33:29Z</time>
      </trkpt>
      <trkpt lat="43.89454" lon="4.92812">
        <ele>113.57</ele>
        <time>2020-03-09T10:33:46Z</time>
      </trkpt>
      <trkpt lat="43.89437" lon="4.92801">
        <ele>113.57</ele>
        <time>2020-03-09T10:34:03Z</time>
      </trkpt>
      <trkpt lat="43.89432" lon="4.92797">
        <ele>114.05</ele>
        <time>2020-03-09T10:34:09Z</time>
      </trkpt>
      <trkpt lat="43.89422" lon="4.92794">
        <ele>115.01</ele>
        <time>2020-03-09T10:34:18Z</time>
      </trkpt>
      <trkpt lat="43.89406" lon="4.92791">
        <ele>115.98</ele>
        <time>2020-03-09T10:34:33Z</time>
      </trkpt>
      <trkpt lat="43.89387" lon="4.92791">
        <ele>116.46</ele>
        <time>2020-03-09T10:34:53Z</time>
      </trkpt>
      <trkpt lat="43.89371" lon="4.9279">
        <ele>115.01</ele>
        <time>2020-03-09T10:35:13Z</time>
      </trkpt>
      <trkpt lat="43.89355" lon="4.92793">
        <ele>116.46</ele>
        <time>2020-03-09T10:35:35Z</time>
      </trkpt>
      <trkpt lat="43.89358" lon="4.92806">
        <ele>116.46</ele>
        <time>2020-03-09T10:35:52Z</time>
      </trkpt>
      <trkpt lat="43.89342" lon="4.92813">
        <ele>117.42</ele>
        <time>2020-03-09T10:36:11Z</time>
      </trkpt>
      <trkpt lat="43.89338" lon="4.92819">
        <ele>117.42</ele>
        <time>2020-03-09T10:36:16Z</time>
      </trkpt>
      <trkpt lat="43.89336" lon="4.92823">
        <ele>117.9</ele>
        <time>2020-03-09T10:36:19Z</time>
      </trkpt>
      <trkpt lat="43.8933" lon="4.92832">
        <ele>118.38</ele>
        <time>2020-03-09T10:36:28Z</time>
      </trkpt>
      <trkpt lat="43.89335" lon="4.92856">
        <ele>119.82</ele>
        <time>2020-03-09T10:36:47Z</time>
      </trkpt>
      <trkpt lat="43.8933" lon="4.92873">
        <ele>119.82</ele>
        <time>2020-03-09T10:37:02Z</time>
      </trkpt>
      <trkpt lat="43.89313" lon="4.92893">
        <ele>119.34</ele>
        <time>2020-03-09T10:37:22Z</time>
      </trkpt>
      <trkpt lat="43.8931" lon="4.92897">
        <ele>119.34</ele>
        <time>2020-03-09T10:37:27Z</time>
      </trkpt>
      <trkpt lat="43.89292" lon="4.92891">
        <ele>119.82</ele>
        <time>2020-03-09T10:37:44Z</time>
      </trkpt>
      <trkpt lat="43.89274" lon="4.92892">
        <ele>119.34</ele>
        <time>2020-03-09T10:38:00Z</time>
      </trkpt>
      <trkpt lat="43.89266" lon="4.92897">
        <ele>119.82</ele>
        <time>2020-03-09T10:38:09Z</time>
      </trkpt>
      <trkpt lat="43.89263" lon="4.92905">
        <ele>120.78</ele>
        <time>2020-03-09T10:38:14Z</time>
      </trkpt>
      <trkpt lat="43.89267" lon="4.92934">
        <ele>119.34</ele>
        <time>2020-03-09T10:38:32Z</time>
      </trkpt>
      <trkpt lat="43.89273" lon="4.92961">
        <ele>120.3</ele>
        <time>2020-03-09T10:38:49Z</time>
      </trkpt>
      <trkpt lat="43.89281" lon="4.92983">
        <ele>119.82</ele>
        <time>2020-03-09T10:39:06Z</time>
      </trkpt>
      <trkpt lat="43.89274" lon="4.92997">
        <ele>119.34</ele>
        <time>2020-03-09T10:39:22Z</time>
      </trkpt>
      <trkpt lat="43.89273" lon="4.92998">
        <ele>119.34</ele>
        <time>2020-03-09T10:39:41Z</time>
      </trkpt>
      <trkpt lat="43.8927" lon="4.92999">
        <ele>118.38</ele>
        <time>2020-03-09T10:40:02Z</time>
      </trkpt>
      <trkpt lat="43.8927" lon="4.93004">
        <ele>117.42</ele>
        <time>2020-03-09T10:40:10Z</time>
      </trkpt>
      <trkpt lat="43.89276" lon="4.93022">
        <ele>117.42</ele>
        <time>2020-03-09T10:40:32Z</time>
      </trkpt>
      <trkpt lat="43.89272" lon="4.93015">
        <ele>117.42</ele>
        <time>2020-03-09T10:40:49Z</time>
      </trkpt>
      <trkpt lat="43.89272" lon="4.93014">
        <ele>116.46</ele>
        <time>2020-03-09T10:41:11Z</time>
      </trkpt>
      <trkpt lat="43.89272" lon="4.93014">
        <ele>116.46</ele>
        <time>2020-03-09T10:41:40Z</time>
      </trkpt>
      <trkpt lat="43.89271" lon="4.93013">
        <ele>115.5</ele>
        <time>2020-03-09T10:42:58Z</time>
      </trkpt>
      <trkpt lat="43.89271" lon="4.93012">
        <ele>115.01</ele>
        <time>2020-03-09T10:43:52Z</time>
      </trkpt>
      <trkpt lat="43.89272" lon="4.93012">
        <ele>115.01</ele>
        <time>2020-03-09T10:44:12Z</time>
      </trkpt>
      <trkpt lat="43.89273" lon="4.93012">
        <ele>115.01</ele>
        <time>2020-03-09T10:44:48Z</time>
      </trkpt>
      <trkpt lat="43.89272" lon="4.93012">
        <ele>115.01</ele>
        <time>2020-03-09T10:49:47Z</time>
      </trkpt>
      <trkpt lat="43.89272" lon="4.93013">
        <ele>115.01</ele>
        <time>2020-03-09T10:55:41Z</time>
      </trkpt>
      <trkpt lat="43.89272" lon="4.93012">
        <ele>115.01</ele>
        <time>2020-03-09T11:01:46Z</time>
      </trkpt>
      <trkpt lat="43.89273" lon="4.93012">
        <ele>115.01</ele>
        <time>2020-03-09T11:05:07Z</time>
      </trkpt>
      <trkpt lat="43.89272" lon="4.93012">
        <ele>115.01</ele>
        <time>2020-03-09T11:07:03Z</time>
      </trkpt>
      <trkpt lat="43.89272" lon="4.93012">
        <ele>115.01</ele>
        <time>2020-03-09T11:10:18Z</time>
      </trkpt>
      <trkpt lat="43.89273" lon="4.93013">
        <ele>115.01</ele>
        <time>2020-03-09T11:13:40Z</time>
      </trkpt>
      <trkpt lat="43.89274" lon="4.93013">
        <ele>115.01</ele>
        <time>2020-03-09T11:18:13Z</time>
      </trkpt>
      <trkpt lat="43.89274" lon="4.93013">
        <ele>115.01</ele>
        <time>2020-03-09T11:21:55Z</time>
      </trkpt>
      <trkpt lat="43.89274" lon="4.93013">
        <ele>115.01</ele>
        <time>2020-03-09T11:26:05Z</time>
      </trkpt>
      <trkpt lat="43.89274" lon="4.93015">
        <ele>115.01</ele>
        <time>2020-03-09T11:27:00Z</time>
      </trkpt>
      <trkpt lat="43.89274" lon="4.93015">
        <ele>115.01</ele>
        <time>2020-03-09T11:27:26Z</time>
      </trkpt>
      <trkpt lat="43.89275" lon="4.93015">
        <ele>115.01</ele>
        <time>2020-03-09T11:27:53Z</time>
      </trkpt>
      <trkpt lat="43.89274" lon="4.93012">
        <ele>115.01</ele>
        <time>2020-03-09T11:28:28Z</time>
      </trkpt>
      <trkpt lat="43.89279" lon="4.92998">
        <ele>115.01</ele>
        <time>2020-03-09T11:28:51Z</time>
      </trkpt>
      <trkpt lat="43.8928" lon="4.92994">
        <ele>115.01</ele>
        <time>2020-03-09T11:29:17Z</time>
      </trkpt>
      <trkpt lat="43.89282" lon="4.92992">
        <ele>123.19</ele>
        <time>2020-03-09T11:29:21Z</time>
      </trkpt>
      <trkpt lat="43.89283" lon="4.92992">
        <ele>121.26</ele>
        <time>2020-03-09T11:29:22Z</time>
      </trkpt>
      <trkpt lat="43.89284" lon="4.92991">
        <ele>119.82</ele>
        <time>2020-03-09T11:29:25Z</time>
      </trkpt>
      <trkpt lat="43.89287" lon="4.92976">
        <ele>119.82</ele>
        <time>2020-03-09T11:29:45Z</time>
      </trkpt>
      <trkpt lat="43.89295" lon="4.92969">
        <ele>120.3</ele>
        <time>2020-03-09T11:30:03Z</time>
      </trkpt>
      <trkpt lat="43.89305" lon="4.92951">
        <ele>120.3</ele>
        <time>2020-03-09T11:30:21Z</time>
      </trkpt>
      <trkpt lat="43.89312" lon="4.92935">
        <ele>120.3</ele>
        <time>2020-03-09T11:30:41Z</time>
      </trkpt>
      <trkpt lat="43.89322" lon="4.92916">
        <ele>119.34</ele>
        <time>2020-03-09T11:31:00Z</time>
      </trkpt>
      <trkpt lat="43.89331" lon="4.92913">
        <ele>119.82</ele>
        <time>2020-03-09T11:31:10Z</time>
      </trkpt>
      <trkpt lat="43.89339" lon="4.92915">
        <ele>120.3</ele>
        <time>2020-03-09T11:31:30Z</time>
      </trkpt>
      <trkpt lat="43.8934" lon="4.92911">
        <ele>120.3</ele>
        <time>2020-03-09T11:32:04Z</time>
      </trkpt>
      <trkpt lat="43.8935" lon="4.9291">
        <ele>120.3</ele>
        <time>2020-03-09T11:32:12Z</time>
      </trkpt>
      <trkpt lat="43.89369" lon="4.92909">
        <ele>120.3</ele>
        <time>2020-03-09T11:32:28Z</time>
      </trkpt>
      <trkpt lat="43.8939" lon="4.92916">
        <ele>119.82</ele>
        <time>2020-03-09T11:32:47Z</time>
      </trkpt>
      <trkpt lat="43.89406" lon="4.92919">
        <ele>119.34</ele>
        <time>2020-03-09T11:33:02Z</time>
      </trkpt>
      <trkpt lat="43.8942" lon="4.92921">
        <ele>119.34</ele>
        <time>2020-03-09T11:33:17Z</time>
      </trkpt>
      <trkpt lat="43.89439" lon="4.92933">
        <ele>119.34</ele>
        <time>2020-03-09T11:33:38Z</time>
      </trkpt>
      <trkpt lat="43.89451" lon="4.92946">
        <ele>118.38</ele>
        <time>2020-03-09T11:33:55Z</time>
      </trkpt>
      <trkpt lat="43.8947" lon="4.9296">
        <ele>119.34</ele>
        <time>2020-03-09T11:34:17Z</time>
      </trkpt>
      <trkpt lat="43.89488" lon="4.92974">
        <ele>118.86</ele>
        <time>2020-03-09T11:34:38Z</time>
      </trkpt>
      <trkpt lat="43.89504" lon="4.92985">
        <ele>118.38</ele>
        <time>2020-03-09T11:34:58Z</time>
      </trkpt>
      <trkpt lat="43.89524" lon="4.92997">
        <ele>117.9</ele>
        <time>2020-03-09T11:35:19Z</time>
      </trkpt>
      <trkpt lat="43.8954" lon="4.93008">
        <ele>118.38</ele>
        <time>2020-03-09T11:35:37Z</time>
      </trkpt>
      <trkpt lat="43.89558" lon="4.93019">
        <ele>118.38</ele>
        <time>2020-03-09T11:35:57Z</time>
      </trkpt>
      <trkpt lat="43.89575" lon="4.93028">
        <ele>117.42</ele>
        <time>2020-03-09T11:36:17Z</time>
      </trkpt>
      <trkpt lat="43.89594" lon="4.93035">
        <ele>116.94</ele>
        <time>2020-03-09T11:36:35Z</time>
      </trkpt>
      <trkpt lat="43.89602" lon="4.93038">
        <ele>116.46</ele>
        <time>2020-03-09T11:36:47Z</time>
      </trkpt>
      <trkpt lat="43.89621" lon="4.93046">
        <ele>116.46</ele>
        <time>2020-03-09T11:37:05Z</time>
      </trkpt>
      <trkpt lat="43.89638" lon="4.93048">
        <ele>115.98</ele>
        <time>2020-03-09T11:37:21Z</time>
      </trkpt>
      <trkpt lat="43.89653" lon="4.93044">
        <ele>117.42</ele>
        <time>2020-03-09T11:37:34Z</time>
      </trkpt>
      <trkpt lat="43.8967" lon="4.93043">
        <ele>117.9</ele>
        <time>2020-03-09T11:37:51Z</time>
      </trkpt>
      <trkpt lat="43.89691" lon="4.93045">
        <ele>117.42</ele>
        <time>2020-03-09T11:38:09Z</time>
      </trkpt>
      <trkpt lat="43.89713" lon="4.93046">
        <ele>117.42</ele>
        <time>2020-03-09T11:38:26Z</time>
      </trkpt>
      <trkpt lat="43.8973" lon="4.93055">
        <ele>117.42</ele>
        <time>2020-03-09T11:38:42Z</time>
      </trkpt>
      <trkpt lat="43.89746" lon="4.93065">
        <ele>116.94</ele>
        <time>2020-03-09T11:39:00Z</time>
      </trkpt>
      <trkpt lat="43.89756" lon="4.9307">
        <ele>115.98</ele>
        <time>2020-03-09T11:39:09Z</time>
      </trkpt>
      <trkpt lat="43.89777" lon="4.93083">
        <ele>116.94</ele>
        <time>2020-03-09T11:39:27Z</time>
      </trkpt>
      <trkpt lat="43.89784" lon="4.93087">
        <ele>116.46</ele>
        <time>2020-03-09T11:39:34Z</time>
      </trkpt>
      <trkpt lat="43.89801" lon="4.93101">
        <ele>116.46</ele>
        <time>2020-03-09T11:39:51Z</time>
      </trkpt>
      <trkpt lat="43.89808" lon="4.93102">
        <ele>116.94</ele>
        <time>2020-03-09T11:39:59Z</time>
      </trkpt>
      <trkpt lat="43.89829" lon="4.93105">
        <ele>116.46</ele>
        <time>2020-03-09T11:40:17Z</time>
      </trkpt>
      <trkpt lat="43.89846" lon="4.93107">
        <ele>117.42</ele>
        <time>2020-03-09T11:40:32Z</time>
      </trkpt>
      <trkpt lat="43.89867" lon="4.93109">
        <ele>117.42</ele>
        <time>2020-03-09T11:40:50Z</time>
      </trkpt>
      <trkpt lat="43.89885" lon="4.93113">
        <ele>117.42</ele>
        <time>2020-03-09T11:41:04Z</time>
      </trkpt>
      <trkpt lat="43.89901" lon="4.93123">
        <ele>117.42</ele>
        <time>2020-03-09T11:41:19Z</time>
      </trkpt>
      <trkpt lat="43.89919" lon="4.93129">
        <ele>117.42</ele>
        <time>2020-03-09T11:41:36Z</time>
      </trkpt>
      <trkpt lat="43.8993" lon="4.93143">
        <ele>116.94</ele>
        <time>2020-03-09T11:41:49Z</time>
      </trkpt>
      <trkpt lat="43.89937" lon="4.93149">
        <ele>116.94</ele>
        <time>2020-03-09T11:41:58Z</time>
      </trkpt>
      <trkpt lat="43.89951" lon="4.93161">
        <ele>117.42</ele>
        <time>2020-03-09T11:42:13Z</time>
      </trkpt>
      <trkpt lat="43.89964" lon="4.93172">
        <ele>116.94</ele>
        <time>2020-03-09T11:42:26Z</time>
      </trkpt>
      <trkpt lat="43.8998" lon="4.93185">
        <ele>116.94</ele>
        <time>2020-03-09T11:42:41Z</time>
      </trkpt>
      <trkpt lat="43.89994" lon="4.93201">
        <ele>116.46</ele>
        <time>2020-03-09T11:42:57Z</time>
      </trkpt>
      <trkpt lat="43.9001" lon="4.93218">
        <ele>117.42</ele>
        <time>2020-03-09T11:43:16Z</time>
      </trkpt>
      <trkpt lat="43.90028" lon="4.93231">
        <ele>117.42</ele>
        <time>2020-03-09T11:43:35Z</time>
      </trkpt>
      <trkpt lat="43.90033" lon="4.93238">
        <ele>117.42</ele>
        <time>2020-03-09T11:43:43Z</time>
      </trkpt>
      <trkpt lat="43.90044" lon="4.93265">
        <ele>117.42</ele>
        <time>2020-03-09T11:44:02Z</time>
      </trkpt>
      <trkpt lat="43.90049" lon="4.93277">
        <ele>117.42</ele>
        <time>2020-03-09T11:44:11Z</time>
      </trkpt>
      <trkpt lat="43.90064" lon="4.93288">
        <ele>118.38</ele>
        <time>2020-03-09T11:44:28Z</time>
      </trkpt>
      <trkpt lat="43.90074" lon="4.93299">
        <ele>117.42</ele>
        <time>2020-03-09T11:44:43Z</time>
      </trkpt>
      <trkpt lat="43.9007" lon="4.93321">
        <ele>117.42</ele>
        <time>2020-03-09T11:45:05Z</time>
      </trkpt>
      <trkpt lat="43.90073" lon="4.93323">
        <ele>117.9</ele>
        <time>2020-03-09T11:45:35Z</time>
      </trkpt>
      <trkpt lat="43.90068" lon="4.93321">
        <ele>117.9</ele>
        <time>2020-03-09T11:46:07Z</time>
      </trkpt>
      <trkpt lat="43.90069" lon="4.93322">
        <ele>116.94</ele>
        <time>2020-03-09T11:46:34Z</time>
      </trkpt>
      <trkpt lat="43.90068" lon="4.93321">
        <ele>118.38</ele>
        <time>2020-03-09T11:47:16Z</time>
      </trkpt>
      <trkpt lat="43.9007" lon="4.93323">
        <ele>116.94</ele>
        <time>2020-03-09T11:47:46Z</time>
      </trkpt>
      <trkpt lat="43.90073" lon="4.93321">
        <ele>116.46</ele>
        <time>2020-03-09T11:47:50Z</time>
      </trkpt>
      <trkpt lat="43.90078" lon="4.93317">
        <ele>116.94</ele>
        <time>2020-03-09T11:47:55Z</time>
      </trkpt>
      <trkpt lat="43.90082" lon="4.93319">
        <ele>117.42</ele>
        <time>2020-03-09T11:48:10Z</time>
      </trkpt>
      <trkpt lat="43.9009" lon="4.93322">
        <ele>115.98</ele>
        <time>2020-03-09T11:48:25Z</time>
      </trkpt>
      <trkpt lat="43.90085" lon="4.93323">
        <ele>117.42</ele>
        <time>2020-03-09T11:48:35Z</time>
      </trkpt>
      <trkpt lat="43.90083" lon="4.93321">
        <ele>117.42</ele>
        <time>2020-03-09T11:48:37Z</time>
      </trkpt>
      <trkpt lat="43.90078" lon="4.93312">
        <ele>117.9</ele>
        <time>2020-03-09T11:48:44Z</time>
      </trkpt>
      <trkpt lat="43.90077" lon="4.9331">
        <ele>117.9</ele>
        <time>2020-03-09T11:48:46Z</time>
      </trkpt>
      <trkpt lat="43.90074" lon="4.93307">
        <ele>117.9</ele>
        <time>2020-03-09T11:49:01Z</time>
      </trkpt>
      <trkpt lat="43.90071" lon="4.93322">
        <ele>117.9</ele>
        <time>2020-03-09T11:49:12Z</time>
      </trkpt>
      <trkpt lat="43.90078" lon="4.93323">
        <ele>118.38</ele>
        <time>2020-03-09T11:49:18Z</time>
      </trkpt>
      <trkpt lat="43.90081" lon="4.93323">
        <ele>118.38</ele>
        <time>2020-03-09T11:49:20Z</time>
      </trkpt>
      <trkpt lat="43.90087" lon="4.93327">
        <ele>118.86</ele>
        <time>2020-03-09T11:49:27Z</time>
      </trkpt>
      <trkpt lat="43.90093" lon="4.93322">
        <ele>117.42</ele>
        <time>2020-03-09T11:49:33Z</time>
      </trkpt>
      <trkpt lat="43.90108" lon="4.93302">
        <ele>117.42</ele>
        <time>2020-03-09T11:49:53Z</time>
      </trkpt>
      <trkpt lat="43.90114" lon="4.93295">
        <ele>115.01</ele>
        <time>2020-03-09T11:50:06Z</time>
      </trkpt>
      <trkpt lat="43.90116" lon="4.93293">
        <ele>115.01</ele>
        <time>2020-03-09T11:50:09Z</time>
      </trkpt>
      <trkpt lat="43.90121" lon="4.93288">
        <ele>115.98</ele>
        <time>2020-03-09T11:50:13Z</time>
      </trkpt>
      <trkpt lat="43.90133" lon="4.93273">
        <ele>113.57</ele>
        <time>2020-03-09T11:50:26Z</time>
      </trkpt>
      <trkpt lat="43.90147" lon="4.93254">
        <ele>115.5</ele>
        <time>2020-03-09T11:50:43Z</time>
      </trkpt>
      <trkpt lat="43.9017" lon="4.93227">
        <ele>114.53</ele>
        <time>2020-03-09T11:51:05Z</time>
      </trkpt>
      <trkpt lat="43.90185" lon="4.93202">
        <ele>114.05</ele>
        <time>2020-03-09T11:51:24Z</time>
      </trkpt>
      <trkpt lat="43.90199" lon="4.93183">
        <ele>113.57</ele>
        <time>2020-03-09T11:51:41Z</time>
      </trkpt>
      <trkpt lat="43.90214" lon="4.93163">
        <ele>112.61</ele>
        <time>2020-03-09T11:51:58Z</time>
      </trkpt>
      <trkpt lat="43.90217" lon="4.93157">
        <ele>112.61</ele>
        <time>2020-03-09T11:52:02Z</time>
      </trkpt>
      <trkpt lat="43.90231" lon="4.93136">
        <ele>112.61</ele>
        <time>2020-03-09T11:52:19Z</time>
      </trkpt>
      <trkpt lat="43.90246" lon="4.93116">
        <ele>112.61</ele>
        <time>2020-03-09T11:52:37Z</time>
      </trkpt>
      <trkpt lat="43.90253" lon="4.93108">
        <ele>112.13</ele>
        <time>2020-03-09T11:52:48Z</time>
      </trkpt>
      <trkpt lat="43.90258" lon="4.93104">
        <ele>109.73</ele>
        <time>2020-03-09T11:52:53Z</time>
      </trkpt>
      <trkpt lat="43.90279" lon="4.93079">
        <ele>110.21</ele>
        <time>2020-03-09T11:53:13Z</time>
      </trkpt>
      <trkpt lat="43.90286" lon="4.93064">
        <ele>111.17</ele>
        <time>2020-03-09T11:53:25Z</time>
      </trkpt>
      <trkpt lat="43.90305" lon="4.93037">
        <ele>112.61</ele>
        <time>2020-03-09T11:53:46Z</time>
      </trkpt>
      <trkpt lat="43.90325" lon="4.93005">
        <ele>111.17</ele>
        <time>2020-03-09T11:54:09Z</time>
      </trkpt>
      <trkpt lat="43.90339" lon="4.9298">
        <ele>113.09</ele>
        <time>2020-03-09T11:54:28Z</time>
      </trkpt>
      <trkpt lat="43.9035" lon="4.92965">
        <ele>113.57</ele>
        <time>2020-03-09T11:54:42Z</time>
      </trkpt>
      <trkpt lat="43.90369" lon="4.92949">
        <ele>114.53</ele>
        <time>2020-03-09T11:55:01Z</time>
      </trkpt>
      <trkpt lat="43.90374" lon="4.9295">
        <ele>115.01</ele>
        <time>2020-03-09T11:55:05Z</time>
      </trkpt>
      <trkpt lat="43.90376" lon="4.92955">
        <ele>115.01</ele>
        <time>2020-03-09T11:55:09Z</time>
      </trkpt>
      <trkpt lat="43.90387" lon="4.92976">
        <ele>115.01</ele>
        <time>2020-03-09T11:55:28Z</time>
      </trkpt>
      <trkpt lat="43.90397" lon="4.92994">
        <ele>115.01</ele>
        <time>2020-03-09T11:55:42Z</time>
      </trkpt>
      <trkpt lat="43.90409" lon="4.93011">
        <ele>114.53</ele>
        <time>2020-03-09T11:55:56Z</time>
      </trkpt>
      <trkpt lat="43.90428" lon="4.93023">
        <ele>114.53</ele>
        <time>2020-03-09T11:56:13Z</time>
      </trkpt>
      <trkpt lat="43.90449" lon="4.93044">
        <ele>115.5</ele>
        <time>2020-03-09T11:56:33Z</time>
      </trkpt>
      <trkpt lat="43.90465" lon="4.93063">
        <ele>115.5</ele>
        <time>2020-03-09T11:56:51Z</time>
      </trkpt>
      <trkpt lat="43.90482" lon="4.93082">
        <ele>115.98</ele>
        <time>2020-03-09T11:57:10Z</time>
      </trkpt>
      <trkpt lat="43.90501" lon="4.93098">
        <ele>116.46</ele>
        <time>2020-03-09T11:57:28Z</time>
      </trkpt>
      <trkpt lat="43.90519" lon="4.93113">
        <ele>115.5</ele>
        <time>2020-03-09T11:57:45Z</time>
      </trkpt>
      <trkpt lat="43.90537" lon="4.93126">
        <ele>115.01</ele>
        <time>2020-03-09T11:58:04Z</time>
      </trkpt>
      <trkpt lat="43.90557" lon="4.93137">
        <ele>115.5</ele>
        <time>2020-03-09T11:58:24Z</time>
      </trkpt>
      <trkpt lat="43.90577" lon="4.93152">
        <ele>114.53</ele>
        <time>2020-03-09T11:58:43Z</time>
      </trkpt>
      <trkpt lat="43.90583" lon="4.93161">
        <ele>115.5</ele>
        <time>2020-03-09T11:58:51Z</time>
      </trkpt>
      <trkpt lat="43.906" lon="4.93168">
        <ele>115.5</ele>
        <time>2020-03-09T11:59:06Z</time>
      </trkpt>
      <trkpt lat="43.90607" lon="4.93169">
        <ele>115.5</ele>
        <time>2020-03-09T11:59:13Z</time>
      </trkpt>
      <trkpt lat="43.90614" lon="4.93167">
        <ele>115.5</ele>
        <time>2020-03-09T11:59:17Z</time>
      </trkpt>
      <trkpt lat="43.90629" lon="4.93177">
        <ele>115.01</ele>
        <time>2020-03-09T11:59:35Z</time>
      </trkpt>
      <trkpt lat="43.9064" lon="4.93192">
        <ele>115.98</ele>
        <time>2020-03-09T11:59:54Z</time>
      </trkpt>
      <trkpt lat="43.90642" lon="4.93192">
        <ele>115.98</ele>
        <time>2020-03-09T11:59:55Z</time>
      </trkpt>
      <trkpt lat="43.90663" lon="4.93192">
        <ele>115.5</ele>
        <time>2020-03-09T12:00:12Z</time>
      </trkpt>
      <trkpt lat="43.90673" lon="4.93196">
        <ele>115.98</ele>
        <time>2020-03-09T12:00:25Z</time>
      </trkpt>
      <trkpt lat="43.90682" lon="4.93196">
        <ele>116.46</ele>
        <time>2020-03-09T12:00:31Z</time>
      </trkpt>
      <trkpt lat="43.90701" lon="4.932">
        <ele>116.94</ele>
        <time>2020-03-09T12:00:46Z</time>
      </trkpt>
      <trkpt lat="43.90714" lon="4.93214">
        <ele>117.42</ele>
        <time>2020-03-09T12:01:03Z</time>
      </trkpt>
      <trkpt lat="43.90734" lon="4.9322">
        <ele>117.42</ele>
        <time>2020-03-09T12:01:20Z</time>
      </trkpt>
      <trkpt lat="43.90736" lon="4.93221">
        <ele>117.42</ele>
        <time>2020-03-09T12:01:22Z</time>
      </trkpt>
      <trkpt lat="43.90761" lon="4.93231">
        <ele>117.42</ele>
        <time>2020-03-09T12:01:42Z</time>
      </trkpt>
      <trkpt lat="43.9078" lon="4.93243">
        <ele>118.38</ele>
        <time>2020-03-09T12:01:59Z</time>
      </trkpt>
      <trkpt lat="43.90799" lon="4.93253">
        <ele>118.86</ele>
        <time>2020-03-09T12:02:17Z</time>
      </trkpt>
      <trkpt lat="43.90815" lon="4.93251">
        <ele>118.38</ele>
        <time>2020-03-09T12:02:32Z</time>
      </trkpt>
      <trkpt lat="43.90828" lon="4.93245">
        <ele>118.38</ele>
        <time>2020-03-09T12:02:45Z</time>
      </trkpt>
      <trkpt lat="43.90835" lon="4.93237">
        <ele>119.34</ele>
        <time>2020-03-09T12:02:53Z</time>
      </trkpt>
      <trkpt lat="43.90841" lon="4.93234">
        <ele>119.34</ele>
        <time>2020-03-09T12:02:57Z</time>
      </trkpt>
      <trkpt lat="43.90848" lon="4.93238">
        <ele>118.38</ele>
        <time>2020-03-09T12:03:13Z</time>
      </trkpt>
      <trkpt lat="43.90848" lon="4.93232">
        <ele>118.38</ele>
        <time>2020-03-09T12:03:47Z</time>
      </trkpt>
      <trkpt lat="43.9085" lon="4.93224">
        <ele>118.38</ele>
        <time>2020-03-09T12:04:16Z</time>
      </trkpt>
      <trkpt lat="43.90851" lon="4.93216">
        <ele>118.38</ele>
        <time>2020-03-09T12:04:22Z</time>
      </trkpt>
      <trkpt lat="43.90855" lon="4.93192">
        <ele>118.86</ele>
        <time>2020-03-09T12:04:38Z</time>
      </trkpt>
      <trkpt lat="43.90855" lon="4.93168">
        <ele>118.86</ele>
        <time>2020-03-09T12:04:54Z</time>
      </trkpt>
      <trkpt lat="43.90855" lon="4.93149">
        <ele>118.86</ele>
        <time>2020-03-09T12:05:04Z</time>
      </trkpt>
      <trkpt lat="43.90864" lon="4.93122">
        <ele>119.34</ele>
        <time>2020-03-09T12:05:23Z</time>
      </trkpt>
      <trkpt lat="43.90867" lon="4.93098">
        <ele>119.82</ele>
        <time>2020-03-09T12:05:39Z</time>
      </trkpt>
      <trkpt lat="43.90869" lon="4.93081">
        <ele>119.82</ele>
        <time>2020-03-09T12:05:49Z</time>
      </trkpt>
      <trkpt lat="43.90873" lon="4.93055">
        <ele>119.82</ele>
        <time>2020-03-09T12:06:06Z</time>
      </trkpt>
      <trkpt lat="43.9088" lon="4.93038">
        <ele>118.86</ele>
        <time>2020-03-09T12:06:17Z</time>
      </trkpt>
      <trkpt lat="43.90901" lon="4.93046">
        <ele>119.34</ele>
        <time>2020-03-09T12:06:36Z</time>
      </trkpt>
      <trkpt lat="43.90921" lon="4.93049">
        <ele>118.38</ele>
        <time>2020-03-09T12:06:53Z</time>
      </trkpt>
      <trkpt lat="43.9094" lon="4.93047">
        <ele>118.86</ele>
        <time>2020-03-09T12:07:09Z</time>
      </trkpt>
      <trkpt lat="43.90956" lon="4.93052">
        <ele>119.34</ele>
        <time>2020-03-09T12:07:25Z</time>
      </trkpt>
      <trkpt lat="43.90968" lon="4.93071">
        <ele>119.82</ele>
        <time>2020-03-09T12:07:41Z</time>
      </trkpt>
      <trkpt lat="43.90981" lon="4.93095">
        <ele>119.82</ele>
        <time>2020-03-09T12:07:59Z</time>
      </trkpt>
      <trkpt lat="43.90994" lon="4.93117">
        <ele>120.78</ele>
        <time>2020-03-09T12:08:17Z</time>
      </trkpt>
      <trkpt lat="43.91007" lon="4.93133">
        <ele>120.78</ele>
        <time>2020-03-09T12:08:32Z</time>
      </trkpt>
      <trkpt lat="43.91025" lon="4.93115">
        <ele>121.26</ele>
        <time>2020-03-09T12:08:50Z</time>
      </trkpt>
      <trkpt lat="43.91041" lon="4.93095">
        <ele>119.34</ele>
        <time>2020-03-09T12:09:08Z</time>
      </trkpt>
      <trkpt lat="43.91049" lon="4.93095">
        <ele>117.42</ele>
        <time>2020-03-09T12:09:24Z</time>
      </trkpt>
      <trkpt lat="43.91054" lon="4.93106">
        <ele>117.9</ele>
        <time>2020-03-09T12:09:37Z</time>
      </trkpt>
      <trkpt lat="43.91052" lon="4.93117">
        <ele>119.34</ele>
        <time>2020-03-09T12:09:48Z</time>
      </trkpt>
      <trkpt lat="43.91056" lon="4.93132">
        <ele>118.86</ele>
        <time>2020-03-09T12:10:01Z</time>
      </trkpt>
      <trkpt lat="43.9107" lon="4.9314">
        <ele>118.86</ele>
        <time>2020-03-09T12:10:18Z</time>
      </trkpt>
      <trkpt lat="43.9109" lon="4.93131">
        <ele>117.42</ele>
        <time>2020-03-09T12:10:36Z</time>
      </trkpt>
      <trkpt lat="43.911" lon="4.93123">
        <ele>114.05</ele>
        <time>2020-03-09T12:10:47Z</time>
      </trkpt>
      <trkpt lat="43.91116" lon="4.93116">
        <ele>110.69</ele>
        <time>2020-03-09T12:11:01Z</time>
      </trkpt>
      <trkpt lat="43.91134" lon="4.93101">
        <ele>107.81</ele>
        <time>2020-03-09T12:11:19Z</time>
      </trkpt>
      <trkpt lat="43.91149" lon="4.93087">
        <ele>106.36</ele>
        <time>2020-03-09T12:11:37Z</time>
      </trkpt>
      <trkpt lat="43.91153" lon="4.93079">
        <ele>104.44</ele>
        <time>2020-03-09T12:11:51Z</time>
      </trkpt>
      <trkpt lat="43.91152" lon="4.93069">
        <ele>101.56</ele>
        <time>2020-03-09T12:12:04Z</time>
      </trkpt>
      <trkpt lat="43.91159" lon="4.93067">
        <ele>101.08</ele>
        <time>2020-03-09T12:12:18Z</time>
      </trkpt>
      <trkpt lat="43.91161" lon="4.9306">
        <ele>100.6</ele>
        <time>2020-03-09T12:12:22Z</time>
      </trkpt>
      <trkpt lat="43.91172" lon="4.93041">
        <ele>98.19</ele>
        <time>2020-03-09T12:12:40Z</time>
      </trkpt>
      <trkpt lat="43.91177" lon="4.93034">
        <ele>97.71</ele>
        <time>2020-03-09T12:12:50Z</time>
      </trkpt>
      <trkpt lat="43.9118" lon="4.93028">
        <ele>97.23</ele>
        <time>2020-03-09T12:12:54Z</time>
      </trkpt>
      <trkpt lat="43.91189" lon="4.93003">
        <ele>95.79</ele>
        <time>2020-03-09T12:13:12Z</time>
      </trkpt>
      <trkpt lat="43.91194" lon="4.9298">
        <ele>92.42</ele>
        <time>2020-03-09T12:13:27Z</time>
      </trkpt>
      <trkpt lat="43.91196" lon="4.92969">
        <ele>90.5</ele>
        <time>2020-03-09T12:13:33Z</time>
      </trkpt>
      <trkpt lat="43.91202" lon="4.92951">
        <ele>90.02</ele>
        <time>2020-03-09T12:13:45Z</time>
      </trkpt>
      <trkpt lat="43.91213" lon="4.92927">
        <ele>87.62</ele>
        <time>2020-03-09T12:14:02Z</time>
      </trkpt>
      <trkpt lat="43.91226" lon="4.92896">
        <ele>85.21</ele>
        <time>2020-03-09T12:14:23Z</time>
      </trkpt>
      <trkpt lat="43.91235" lon="4.9288">
        <ele>86.18</ele>
        <time>2020-03-09T12:14:36Z</time>
      </trkpt>
      <trkpt lat="43.91237" lon="4.92879">
        <ele>86.18</ele>
        <time>2020-03-09T12:14:38Z</time>
      </trkpt>
      <trkpt lat="43.9124" lon="4.92881">
        <ele>85.21</ele>
        <time>2020-03-09T12:14:41Z</time>
      </trkpt>
      <trkpt lat="43.91248" lon="4.9288">
        <ele>84.25</ele>
        <time>2020-03-09T12:14:52Z</time>
      </trkpt>
      <trkpt lat="43.91235" lon="4.92868">
        <ele>81.37</ele>
        <time>2020-03-09T12:15:09Z</time>
      </trkpt>
      <trkpt lat="43.91231" lon="4.92846">
        <ele>78.97</ele>
        <time>2020-03-09T12:15:26Z</time>
      </trkpt>
      <trkpt lat="43.91236" lon="4.92824">
        <ele>78</ele>
        <time>2020-03-09T12:15:41Z</time>
      </trkpt>
      <trkpt lat="43.91242" lon="4.9279">
        <ele>75.6</ele>
        <time>2020-03-09T12:16:01Z</time>
      </trkpt>
      <trkpt lat="43.91248" lon="4.92769">
        <ele>74.64</ele>
        <time>2020-03-09T12:16:16Z</time>
      </trkpt>
      <trkpt lat="43.91253" lon="4.92752">
        <ele>72.24</ele>
        <time>2020-03-09T12:16:32Z</time>
      </trkpt>
      <trkpt lat="43.91266" lon="4.92734">
        <ele>70.31</ele>
        <time>2020-03-09T12:16:48Z</time>
      </trkpt>
      <trkpt lat="43.91273" lon="4.92721">
        <ele>69.83</ele>
        <time>2020-03-09T12:16:56Z</time>
      </trkpt>
      <trkpt lat="43.91291" lon="4.927">
        <ele>68.39</ele>
        <time>2020-03-09T12:17:16Z</time>
      </trkpt>
      <trkpt lat="43.91304" lon="4.92689">
        <ele>67.43</ele>
        <time>2020-03-09T12:17:29Z</time>
      </trkpt>
      <trkpt lat="43.91317" lon="4.92666">
        <ele>66.95</ele>
        <time>2020-03-09T12:17:47Z</time>
      </trkpt>
      <trkpt lat="43.91329" lon="4.92649">
        <ele>65.03</ele>
        <time>2020-03-09T12:18:02Z</time>
      </trkpt>
      <trkpt lat="43.91344" lon="4.9263">
        <ele>63.58</ele>
        <time>2020-03-09T12:18:17Z</time>
      </trkpt>
      <trkpt lat="43.91356" lon="4.92612">
        <ele>63.1</ele>
        <time>2020-03-09T12:18:31Z</time>
      </trkpt>
      <trkpt lat="43.91364" lon="4.92602">
        <ele>62.62</ele>
        <time>2020-03-09T12:18:39Z</time>
      </trkpt>
      <trkpt lat="43.91368" lon="4.92597">
        <ele>62.62</ele>
        <time>2020-03-09T12:18:44Z</time>
      </trkpt>
      <trkpt lat="43.9137" lon="4.92595">
        <ele>62.62</ele>
        <time>2020-03-09T12:18:46Z</time>
      </trkpt>
      <trkpt lat="43.91382" lon="4.92575">
        <ele>62.14</ele>
        <time>2020-03-09T12:19:01Z</time>
      </trkpt>
      <trkpt lat="43.91394" lon="4.92558">
        <ele>62.14</ele>
        <time>2020-03-09T12:19:16Z</time>
      </trkpt>
      <trkpt lat="43.91405" lon="4.92556">
        <ele>61.18</ele>
        <time>2020-03-09T12:19:28Z</time>
      </trkpt>
      <trkpt lat="43.91417" lon="4.92566">
        <ele>62.14</ele>
        <time>2020-03-09T12:19:40Z</time>
      </trkpt>
      <trkpt lat="43.9143" lon="4.92575">
        <ele>63.1</ele>
        <time>2020-03-09T12:19:56Z</time>
      </trkpt>
      <trkpt lat="43.91454" lon="4.92569">
        <ele>61.66</ele>
        <time>2020-03-09T12:20:14Z</time>
      </trkpt>
      <trkpt lat="43.91472" lon="4.92567">
        <ele>61.18</ele>
        <time>2020-03-09T12:20:29Z</time>
      </trkpt>
      <trkpt lat="43.91483" lon="4.92557">
        <ele>61.18</ele>
        <time>2020-03-09T12:20:38Z</time>
      </trkpt>
      <trkpt lat="43.91493" lon="4.92542">
        <ele>60.22</ele>
        <time>2020-03-09T12:20:49Z</time>
      </trkpt>
      <trkpt lat="43.91503" lon="4.92516">
        <ele>58.78</ele>
        <time>2020-03-09T12:21:06Z</time>
      </trkpt>
      <trkpt lat="43.91505" lon="4.92507">
        <ele>58.3</ele>
        <time>2020-03-09T12:21:12Z</time>
      </trkpt>
      <trkpt lat="43.91512" lon="4.92482">
        <ele>57.82</ele>
        <time>2020-03-09T12:21:27Z</time>
      </trkpt>
      <trkpt lat="43.91517" lon="4.92483">
        <ele>57.34</ele>
        <time>2020-03-09T12:21:32Z</time>
      </trkpt>
      <trkpt lat="43.91525" lon="4.92491">
        <ele>57.34</ele>
        <time>2020-03-09T12:21:42Z</time>
      </trkpt>
      <trkpt lat="43.91531" lon="4.92497">
        <ele>57.34</ele>
        <time>2020-03-09T12:22:00Z</time>
      </trkpt>
      <trkpt lat="43.9153" lon="4.92496">
        <ele>57.82</ele>
        <time>2020-03-09T12:22:34Z</time>
      </trkpt>
      <trkpt lat="43.9154" lon="4.92503">
        <ele>57.82</ele>
        <time>2020-03-09T12:23:10Z</time>
      </trkpt>
      <trkpt lat="43.91555" lon="4.92516">
        <ele>59.26</ele>
        <time>2020-03-09T12:23:25Z</time>
      </trkpt>
      <trkpt lat="43.91569" lon="4.92527">
        <ele>59.74</ele>
        <time>2020-03-09T12:23:37Z</time>
      </trkpt>
      <trkpt lat="43.91575" lon="4.92549">
        <ele>59.74</ele>
        <time>2020-03-09T12:23:42Z</time>
      </trkpt>
      <trkpt lat="43.916" lon="4.92565">
        <ele>60.22</ele>
        <time>2020-03-09T12:24:01Z</time>
      </trkpt>
      <trkpt lat="43.91611" lon="4.92539">
        <ele>60.7</ele>
        <time>2020-03-09T12:24:17Z</time>
      </trkpt>
      <trkpt lat="43.91621" lon="4.92514">
        <ele>60.7</ele>
        <time>2020-03-09T12:24:35Z</time>
      </trkpt>
      <trkpt lat="43.9163" lon="4.92493">
        <ele>62.62</ele>
        <time>2020-03-09T12:24:50Z</time>
      </trkpt>
      <trkpt lat="43.91637" lon="4.92485">
        <ele>64.55</ele>
        <time>2020-03-09T12:25:00Z</time>
      </trkpt>
      <trkpt lat="43.91647" lon="4.92494">
        <ele>65.03</ele>
        <time>2020-03-09T12:25:12Z</time>
      </trkpt>
      <trkpt lat="43.91657" lon="4.92492">
        <ele>65.03</ele>
        <time>2020-03-09T12:25:24Z</time>
      </trkpt>
      <trkpt lat="43.91666" lon="4.92489">
        <ele>65.99</ele>
        <time>2020-03-09T12:25:38Z</time>
      </trkpt>
      <trkpt lat="43.91691" lon="4.92504">
        <ele>65.99</ele>
        <time>2020-03-09T12:25:58Z</time>
      </trkpt>
      <trkpt lat="43.91711" lon="4.92519">
        <ele>65.99</ele>
        <time>2020-03-09T12:26:15Z</time>
      </trkpt>
      <trkpt lat="43.91732" lon="4.92535">
        <ele>66.47</ele>
        <time>2020-03-09T12:26:33Z</time>
      </trkpt>
      <trkpt lat="43.91744" lon="4.92561">
        <ele>66.47</ele>
        <time>2020-03-09T12:26:51Z</time>
      </trkpt>
      <trkpt lat="43.91759" lon="4.92584">
        <ele>65.99</ele>
        <time>2020-03-09T12:27:09Z</time>
      </trkpt>
      <trkpt lat="43.9176" lon="4.92587">
        <ele>65.99</ele>
        <time>2020-03-09T12:27:12Z</time>
      </trkpt>
      <trkpt lat="43.9176" lon="4.92608">
        <ele>65.99</ele>
        <time>2020-03-09T12:27:25Z</time>
      </trkpt>
      <trkpt lat="43.91764" lon="4.92607">
        <ele>65.03</ele>
        <time>2020-03-09T12:27:37Z</time>
      </trkpt>
      <trkpt lat="43.9177" lon="4.926">
        <ele>65.03</ele>
        <time>2020-03-09T12:27:46Z</time>
      </trkpt>
      <trkpt lat="43.9178" lon="4.92598">
        <ele>65.99</ele>
        <time>2020-03-09T12:27:52Z</time>
      </trkpt>
      <trkpt lat="43.91802" lon="4.92598">
        <ele>67.91</ele>
        <time>2020-03-09T12:28:11Z</time>
      </trkpt>
      <trkpt lat="43.91819" lon="4.92606">
        <ele>67.43</ele>
        <time>2020-03-09T12:28:26Z</time>
      </trkpt>
      <trkpt lat="43.91833" lon="4.92606">
        <ele>67.91</ele>
        <time>2020-03-09T12:28:41Z</time>
      </trkpt>
      <trkpt lat="43.91846" lon="4.92608">
        <ele>68.39</ele>
        <time>2020-03-09T12:28:54Z</time>
      </trkpt>
      <trkpt lat="43.91861" lon="4.92615">
        <ele>69.35</ele>
        <time>2020-03-09T12:29:11Z</time>
      </trkpt>
      <trkpt lat="43.91885" lon="4.92621">
        <ele>69.83</ele>
        <time>2020-03-09T12:29:30Z</time>
      </trkpt>
      <trkpt lat="43.91912" lon="4.92633">
        <ele>70.79</ele>
        <time>2020-03-09T12:29:52Z</time>
      </trkpt>
      <trkpt lat="43.91925" lon="4.92628">
        <ele>71.76</ele>
        <time>2020-03-09T12:30:08Z</time>
      </trkpt>
      <trkpt lat="43.91934" lon="4.92616">
        <ele>71.76</ele>
        <time>2020-03-09T12:30:22Z</time>
      </trkpt>
      <trkpt lat="43.91939" lon="4.92602">
        <ele>72.72</ele>
        <time>2020-03-09T12:30:32Z</time>
      </trkpt>
      <trkpt lat="43.91943" lon="4.9258">
        <ele>73.2</ele>
        <time>2020-03-09T12:30:46Z</time>
      </trkpt>
      <trkpt lat="43.91951" lon="4.9257">
        <ele>73.68</ele>
        <time>2020-03-09T12:30:58Z</time>
      </trkpt>
      <trkpt lat="43.91966" lon="4.92575">
        <ele>73.68</ele>
        <time>2020-03-09T12:31:13Z</time>
      </trkpt>
      <trkpt lat="43.91974" lon="4.92563">
        <ele>76.08</ele>
        <time>2020-03-09T12:31:28Z</time>
      </trkpt>
      <trkpt lat="43.91982" lon="4.9254">
        <ele>78</ele>
        <time>2020-03-09T12:31:45Z</time>
      </trkpt>
      <trkpt lat="43.91987" lon="4.9254">
        <ele>78</ele>
        <time>2020-03-09T12:31:49Z</time>
      </trkpt>
      <trkpt lat="43.92003" lon="4.9255">
        <ele>78</ele>
        <time>2020-03-09T12:32:07Z</time>
      </trkpt>
      <trkpt lat="43.92021" lon="4.92554">
        <ele>78.97</ele>
        <time>2020-03-09T12:32:25Z</time>
      </trkpt>
      <trkpt lat="43.92017" lon="4.92546">
        <ele>82.33</ele>
        <time>2020-03-09T12:32:40Z</time>
      </trkpt>
      <trkpt lat="43.92015" lon="4.92539">
        <ele>83.29</ele>
        <time>2020-03-09T12:33:01Z</time>
      </trkpt>
      <trkpt lat="43.92015" lon="4.92538">
        <ele>83.29</ele>
        <time>2020-03-09T12:33:30Z</time>
      </trkpt>
      <trkpt lat="43.92015" lon="4.92539">
        <ele>83.29</ele>
        <time>2020-03-09T12:33:56Z</time>
      </trkpt>
      <trkpt lat="43.92015" lon="4.9254">
        <ele>83.29</ele>
        <time>2020-03-09T12:34:23Z</time>
      </trkpt>
      <trkpt lat="43.92015" lon="4.92536">
        <ele>83.29</ele>
        <time>2020-03-09T12:34:57Z</time>
      </trkpt>
      <trkpt lat="43.92016" lon="4.92537">
        <ele>83.29</ele>
        <time>2020-03-09T12:35:29Z</time>
      </trkpt>
      <trkpt lat="43.92015" lon="4.92535">
        <ele>83.29</ele>
        <time>2020-03-09T12:35:59Z</time>
      </trkpt>
      <trkpt lat="43.92018" lon="4.9254">
        <ele>83.29</ele>
        <time>2020-03-09T12:36:32Z</time>
      </trkpt>
      <trkpt lat="43.92016" lon="4.92538">
        <ele>83.29</ele>
        <time>2020-03-09T12:37:04Z</time>
      </trkpt>
      <trkpt lat="43.92014" lon="4.92536">
        <ele>83.29</ele>
        <time>2020-03-09T12:37:37Z</time>
      </trkpt>
      <trkpt lat="43.92019" lon="4.9254">
        <ele>83.29</ele>
        <time>2020-03-09T12:38:06Z</time>
      </trkpt>
      <trkpt lat="43.92035" lon="4.92548">
        <ele>83.77</ele>
        <time>2020-03-09T12:38:22Z</time>
      </trkpt>
      <trkpt lat="43.92058" lon="4.92549">
        <ele>84.25</ele>
        <time>2020-03-09T12:38:40Z</time>
      </trkpt>
      <trkpt lat="43.92073" lon="4.92552">
        <ele>84.73</ele>
        <time>2020-03-09T12:38:53Z</time>
      </trkpt>
      <trkpt lat="43.92078" lon="4.9255">
        <ele>85.21</ele>
        <time>2020-03-09T12:38:58Z</time>
      </trkpt>
      <trkpt lat="43.92082" lon="4.92552">
        <ele>85.21</ele>
        <time>2020-03-09T12:39:02Z</time>
      </trkpt>
      <trkpt lat="43.92105" lon="4.92553">
        <ele>86.66</ele>
        <time>2020-03-09T12:39:20Z</time>
      </trkpt>
      <trkpt lat="43.92125" lon="4.92554">
        <ele>88.1</ele>
        <time>2020-03-09T12:39:38Z</time>
      </trkpt>
      <trkpt lat="43.92139" lon="4.92554">
        <ele>89.06</ele>
        <time>2020-03-09T12:39:51Z</time>
      </trkpt>
      <trkpt lat="43.92151" lon="4.92553">
        <ele>90.02</ele>
        <time>2020-03-09T12:40:02Z</time>
      </trkpt>
      <trkpt lat="43.92165" lon="4.92551">
        <ele>91.46</ele>
        <time>2020-03-09T12:40:16Z</time>
      </trkpt>
      <trkpt lat="43.92174" lon="4.92556">
        <ele>91.46</ele>
        <time>2020-03-09T12:40:26Z</time>
      </trkpt>
      <trkpt lat="43.9218" lon="4.92564">
        <ele>92.42</ele>
        <time>2020-03-09T12:40:36Z</time>
      </trkpt>
      <trkpt lat="43.92196" lon="4.92575">
        <ele>91.94</ele>
        <time>2020-03-09T12:40:51Z</time>
      </trkpt>
      <trkpt lat="43.92224" lon="4.9258">
        <ele>90.98</ele>
        <time>2020-03-09T12:41:13Z</time>
      </trkpt>
      <trkpt lat="43.9224" lon="4.92584">
        <ele>90.98</ele>
        <time>2020-03-09T12:41:28Z</time>
      </trkpt>
      <trkpt lat="43.92263" lon="4.9258">
        <ele>90.98</ele>
        <time>2020-03-09T12:41:47Z</time>
      </trkpt>
      <trkpt lat="43.92285" lon="4.9257">
        <ele>91.46</ele>
        <time>2020-03-09T12:42:05Z</time>
      </trkpt>
      <trkpt lat="43.92305" lon="4.92563">
        <ele>91.46</ele>
        <time>2020-03-09T12:42:22Z</time>
      </trkpt>
      <trkpt lat="43.92307" lon="4.92559">
        <ele>91.46</ele>
        <time>2020-03-09T12:42:25Z</time>
      </trkpt>
      <trkpt lat="43.92307" lon="4.92525">
        <ele>92.42</ele>
        <time>2020-03-09T12:42:46Z</time>
      </trkpt>
      <trkpt lat="43.92305" lon="4.92502">
        <ele>94.35</ele>
        <time>2020-03-09T12:43:02Z</time>
      </trkpt>
      <trkpt lat="43.92305" lon="4.92484">
        <ele>95.79</ele>
        <time>2020-03-09T12:43:16Z</time>
      </trkpt>
      <trkpt lat="43.92318" lon="4.92471">
        <ele>94.83</ele>
        <time>2020-03-09T12:43:32Z</time>
      </trkpt>
      <trkpt lat="43.92326" lon="4.92453">
        <ele>94.83</ele>
        <time>2020-03-09T12:43:47Z</time>
      </trkpt>
      <trkpt lat="43.92338" lon="4.92438">
        <ele>96.27</ele>
        <time>2020-03-09T12:44:02Z</time>
      </trkpt>
      <trkpt lat="43.92362" lon="4.92423">
        <ele>98.19</ele>
        <time>2020-03-09T12:44:19Z</time>
      </trkpt>
      <trkpt lat="43.9239" lon="4.92424">
        <ele>99.15</ele>
        <time>2020-03-09T12:44:41Z</time>
      </trkpt>
      <trkpt lat="43.92414" lon="4.92441">
        <ele>99.15</ele>
        <time>2020-03-09T12:45:02Z</time>
      </trkpt>
      <trkpt lat="43.92436" lon="4.9245">
        <ele>98.67</ele>
        <time>2020-03-09T12:45:20Z</time>
      </trkpt>
      <trkpt lat="43.92464" lon="4.92465">
        <ele>98.19</ele>
        <time>2020-03-09T12:45:43Z</time>
      </trkpt>
      <trkpt lat="43.92484" lon="4.9247">
        <ele>99.15</ele>
        <time>2020-03-09T12:46:01Z</time>
      </trkpt>
      <trkpt lat="43.92505" lon="4.92476">
        <ele>100.11</ele>
        <time>2020-03-09T12:46:19Z</time>
      </trkpt>
      <trkpt lat="43.92526" lon="4.92482">
        <ele>99.15</ele>
        <time>2020-03-09T12:46:36Z</time>
      </trkpt>
      <trkpt lat="43.92545" lon="4.92486">
        <ele>99.15</ele>
        <time>2020-03-09T12:46:54Z</time>
      </trkpt>
      <trkpt lat="43.92547" lon="4.92489">
        <ele>99.15</ele>
        <time>2020-03-09T12:46:56Z</time>
      </trkpt>
      <trkpt lat="43.9255" lon="4.92495">
        <ele>98.67</ele>
        <time>2020-03-09T12:47:00Z</time>
      </trkpt>
      <trkpt lat="43.92567" lon="4.92499">
        <ele>98.67</ele>
        <time>2020-03-09T12:47:15Z</time>
      </trkpt>
      <trkpt lat="43.92574" lon="4.92499">
        <ele>99.15</ele>
        <time>2020-03-09T12:47:21Z</time>
      </trkpt>
      <trkpt lat="43.9259" lon="4.92501">
        <ele>99.63</ele>
        <time>2020-03-09T12:47:37Z</time>
      </trkpt>
      <trkpt lat="43.92595" lon="4.92499">
        <ele>100.11</ele>
        <time>2020-03-09T12:47:53Z</time>
      </trkpt>
      <trkpt lat="43.92593" lon="4.92497">
        <ele>101.08</ele>
        <time>2020-03-09T12:48:39Z</time>
      </trkpt>
      <trkpt lat="43.92594" lon="4.92497">
        <ele>100.11</ele>
        <time>2020-03-09T12:49:34Z</time>
      </trkpt>
      <trkpt lat="43.92597" lon="4.92498">
        <ele>100.6</ele>
        <time>2020-03-09T12:49:53Z</time>
      </trkpt>
      <trkpt lat="43.92598" lon="4.92498">
        <ele>100.6</ele>
        <time>2020-03-09T12:49:54Z</time>
      </trkpt>
      <trkpt lat="43.92621" lon="4.92499">
        <ele>101.56</ele>
        <time>2020-03-09T12:50:12Z</time>
      </trkpt>
      <trkpt lat="43.92641" lon="4.92499">
        <ele>101.56</ele>
        <time>2020-03-09T12:50:29Z</time>
      </trkpt>
      <trkpt lat="43.92659" lon="4.925">
        <ele>103</ele>
        <time>2020-03-09T12:50:45Z</time>
      </trkpt>
      <trkpt lat="43.92672" lon="4.92498">
        <ele>104.44</ele>
        <time>2020-03-09T12:50:59Z</time>
      </trkpt>
      <trkpt lat="43.92684" lon="4.92495">
        <ele>105.4</ele>
        <time>2020-03-09T12:51:09Z</time>
      </trkpt>
      <trkpt lat="43.92702" lon="4.92505">
        <ele>106.36</ele>
        <time>2020-03-09T12:51:26Z</time>
      </trkpt>
      <trkpt lat="43.92723" lon="4.92514">
        <ele>106.36</ele>
        <time>2020-03-09T12:51:42Z</time>
      </trkpt>
      <trkpt lat="43.92734" lon="4.92517">
        <ele>106.36</ele>
        <time>2020-03-09T12:51:50Z</time>
      </trkpt>
      <trkpt lat="43.92738" lon="4.92513">
        <ele>106.36</ele>
        <time>2020-03-09T12:51:54Z</time>
      </trkpt>
      <trkpt lat="43.92742" lon="4.92499">
        <ele>106.36</ele>
        <time>2020-03-09T12:52:01Z</time>
      </trkpt>
      <trkpt lat="43.92747" lon="4.92464">
        <ele>107.32</ele>
        <time>2020-03-09T12:52:22Z</time>
      </trkpt>
      <trkpt lat="43.92752" lon="4.92439">
        <ele>107.81</ele>
        <time>2020-03-09T12:52:37Z</time>
      </trkpt>
      <trkpt lat="43.92756" lon="4.92432">
        <ele>108.29</ele>
        <time>2020-03-09T12:52:46Z</time>
      </trkpt>
      <trkpt lat="43.92773" lon="4.92437">
        <ele>108.29</ele>
        <time>2020-03-09T12:52:59Z</time>
      </trkpt>
      <trkpt lat="43.92787" lon="4.92442">
        <ele>107.81</ele>
        <time>2020-03-09T12:53:13Z</time>
      </trkpt>
      <trkpt lat="43.92799" lon="4.92445">
        <ele>108.77</ele>
        <time>2020-03-09T12:53:25Z</time>
      </trkpt>
      <trkpt lat="43.92817" lon="4.92439">
        <ele>109.25</ele>
        <time>2020-03-09T12:53:40Z</time>
      </trkpt>
      <trkpt lat="43.92836" lon="4.9243">
        <ele>109.73</ele>
        <time>2020-03-09T12:53:57Z</time>
      </trkpt>
      <trkpt lat="43.92847" lon="4.92426">
        <ele>110.21</ele>
        <time>2020-03-09T12:54:05Z</time>
      </trkpt>
      <trkpt lat="43.92872" lon="4.92418">
        <ele>110.21</ele>
        <time>2020-03-09T12:54:25Z</time>
      </trkpt>
      <trkpt lat="43.9289" lon="4.92417">
        <ele>110.69</ele>
        <time>2020-03-09T12:54:40Z</time>
      </trkpt>
      <trkpt lat="43.92914" lon="4.92423">
        <ele>109.73</ele>
        <time>2020-03-09T12:55:01Z</time>
      </trkpt>
      <trkpt lat="43.92933" lon="4.92433">
        <ele>110.69</ele>
        <time>2020-03-09T12:55:18Z</time>
      </trkpt>
      <trkpt lat="43.92956" lon="4.92442">
        <ele>110.21</ele>
        <time>2020-03-09T12:55:40Z</time>
      </trkpt>
      <trkpt lat="43.92959" lon="4.92436">
        <ele>110.21</ele>
        <time>2020-03-09T12:55:46Z</time>
      </trkpt>
      <trkpt lat="43.92965" lon="4.92404">
        <ele>109.73</ele>
        <time>2020-03-09T12:56:06Z</time>
      </trkpt>
      <trkpt lat="43.92971" lon="4.92385">
        <ele>110.69</ele>
        <time>2020-03-09T12:56:19Z</time>
      </trkpt>
      <trkpt lat="43.92975" lon="4.92381">
        <ele>111.17</ele>
        <time>2020-03-09T12:56:25Z</time>
      </trkpt>
      <trkpt lat="43.92979" lon="4.92381">
        <ele>110.69</ele>
        <time>2020-03-09T12:56:28Z</time>
      </trkpt>
      <trkpt lat="43.92986" lon="4.92381">
        <ele>110.21</ele>
        <time>2020-03-09T12:56:34Z</time>
      </trkpt>
      <trkpt lat="43.93016" lon="4.92388">
        <ele>111.17</ele>
        <time>2020-03-09T12:56:57Z</time>
      </trkpt>
      <trkpt lat="43.93044" lon="4.92395">
        <ele>109.73</ele>
        <time>2020-03-09T12:57:18Z</time>
      </trkpt>
      <trkpt lat="43.93072" lon="4.92402">
        <ele>109.73</ele>
        <time>2020-03-09T12:57:39Z</time>
      </trkpt>
      <trkpt lat="43.93079" lon="4.92404">
        <ele>109.73</ele>
        <time>2020-03-09T12:57:45Z</time>
      </trkpt>
    </trkseg>
  </trk>
</gpx>